<?xml version="1.0" encoding="UTF-8" standalone="no" ?>
<gpx xmlns="http://www.topografix.com/GPX/1/1" xmlns:xsi="http://www.w3.org/2001/XMLSchema-instance" xsi:schemaLocation="http://www.topografix.com/GPX/1/1 http://www.topografix.com/GPX/1/1/gpx.xsd" version="1.1" creator="VisuGPX - https://www.visugpx.com">
  <metadata>
    <name>puygouzon-millau</name>
    <desc><![CDATA[Bonne route de Puygouzon jusqu'a Millau en suivant le tarn avec un petit détour dans les terres par les costes-gozon.]]></desc>
  </metadata>
  <trk>
    <name><![CDATA[puygouzon-millau_1]]></name>
    <extensions>
      <line xmlns="http://www.topografix.com/GPX/gpx_style/0/2">
        <color>0000FF</color>
        <width>4</width>
      </line>
    </extensions>
    <trkseg>
      <trkpt lat="43.87673" lon="2.16075">
        <ele>250.2</ele>
        <time>2020-06-19T12:28:29.000Z</time>
      </trkpt>
      <trkpt lat="43.87654" lon="2.16113">
        <ele>246.6</ele>
        <time>2020-06-19T12:28:31.656Z</time>
      </trkpt>
      <trkpt lat="43.87678" lon="2.16174">
        <ele>240.3</ele>
        <time>2020-06-19T12:28:35.648Z</time>
      </trkpt>
      <trkpt lat="43.87675" lon="2.16286">
        <ele>231.4</ele>
        <time>2020-06-19T12:28:42.085Z</time>
      </trkpt>
      <trkpt lat="43.87622" lon="2.16366">
        <ele>231.5</ele>
        <time>2020-06-19T12:28:53.733Z</time>
      </trkpt>
      <trkpt lat="43.87635" lon="2.16482">
        <ele>236.8</ele>
        <time>2020-06-19T12:29:17.442Z</time>
      </trkpt>
      <trkpt lat="43.87599" lon="2.1657">
        <ele>246.7</ele>
        <time>2020-06-19T12:29:58.790Z</time>
      </trkpt>
      <trkpt lat="43.87508" lon="2.16709">
        <ele>262.7</ele>
        <time>2020-06-19T12:31:01.683Z</time>
      </trkpt>
      <trkpt lat="43.87503" lon="2.16776">
        <ele>263.8</ele>
        <time>2020-06-19T12:31:10.688Z</time>
      </trkpt>
      <trkpt lat="43.87491" lon="2.16787">
        <ele>265.5</ele>
        <time>2020-06-19T12:31:17.370Z</time>
      </trkpt>
      <trkpt lat="43.87398" lon="2.16779">
        <ele>268.3</ele>
        <time>2020-06-19T12:31:36.266Z</time>
      </trkpt>
      <trkpt lat="43.8729" lon="2.1685">
        <ele>269.1</ele>
        <time>2020-06-19T12:31:54.979Z</time>
      </trkpt>
      <trkpt lat="43.87161" lon="2.16883">
        <ele>276.5</ele>
        <time>2020-06-19T12:32:30.168Z</time>
      </trkpt>
      <trkpt lat="43.87048" lon="2.16966">
        <ele>277.9</ele>
        <time>2020-06-19T12:32:51.056Z</time>
      </trkpt>
      <trkpt lat="43.86963" lon="2.16985">
        <ele>277.5</ele>
        <time>2020-06-19T12:33:02.869Z</time>
      </trkpt>
      <trkpt lat="43.8682" lon="2.17217">
        <ele>275.1</ele>
        <time>2020-06-19T12:33:30.690Z</time>
      </trkpt>
      <trkpt lat="43.86819" lon="2.1724">
        <ele>275.2</ele>
        <time>2020-06-19T12:33:33.274Z</time>
      </trkpt>
      <trkpt lat="43.86683" lon="2.1739">
        <ele>278.4</ele>
        <time>2020-06-19T12:34:03.994Z</time>
      </trkpt>
      <trkpt lat="43.86578" lon="2.17574">
        <ele>289</ele>
        <time>2020-06-19T12:34:51.403Z</time>
      </trkpt>
      <trkpt lat="43.86484" lon="2.17687">
        <ele>294.3</ele>
        <time>2020-06-19T12:35:21.388Z</time>
      </trkpt>
      <trkpt lat="43.86517" lon="2.17821">
        <ele>290.9</ele>
        <time>2020-06-19T12:35:31.362Z</time>
      </trkpt>
      <trkpt lat="43.86522" lon="2.1791">
        <ele>290.1</ele>
        <time>2020-06-19T12:35:39.340Z</time>
      </trkpt>
      <trkpt lat="43.86499" lon="2.18281">
        <ele>297.6</ele>
        <time>2020-06-19T12:36:32.367Z</time>
      </trkpt>
      <trkpt lat="43.86457" lon="2.18521">
        <ele>287.9</ele>
        <time>2020-06-19T12:36:46.687Z</time>
      </trkpt>
      <trkpt lat="43.86473" lon="2.18655">
        <ele>274.7</ele>
        <time>2020-06-19T12:36:54.490Z</time>
      </trkpt>
      <trkpt lat="43.86458" lon="2.1869">
        <ele>270.4</ele>
        <time>2020-06-19T12:36:56.829Z</time>
      </trkpt>
      <trkpt lat="43.86487" lon="2.18719">
        <ele>269.6</ele>
        <time>2020-06-19T12:37:00.758Z</time>
      </trkpt>
      <trkpt lat="43.86516" lon="2.18806">
        <ele>271.1</ele>
        <time>2020-06-19T12:37:13.435Z</time>
      </trkpt>
      <trkpt lat="43.86577" lon="2.18888">
        <ele>276.9</ele>
        <time>2020-06-19T12:37:38.236Z</time>
      </trkpt>
      <trkpt lat="43.8661" lon="2.18962">
        <ele>291.3</ele>
        <time>2020-06-19T12:38:13.799Z</time>
      </trkpt>
      <trkpt lat="43.8664" lon="2.19095">
        <ele>291.2</ele>
        <time>2020-06-19T12:38:28.344Z</time>
      </trkpt>
      <trkpt lat="43.86804" lon="2.1919">
        <ele>297.6</ele>
        <time>2020-06-19T12:39:07.322Z</time>
      </trkpt>
      <trkpt lat="43.86831" lon="2.19335">
        <ele>289.3</ele>
        <time>2020-06-19T12:39:15.924Z</time>
      </trkpt>
      <trkpt lat="43.86889" lon="2.19419">
        <ele>288.3</ele>
        <time>2020-06-19T12:39:26.386Z</time>
      </trkpt>
      <trkpt lat="43.86978" lon="2.19598">
        <ele>293.5</ele>
        <time>2020-06-19T12:39:59.482Z</time>
      </trkpt>
      <trkpt lat="43.87016" lon="2.19772">
        <ele>302.4</ele>
        <time>2020-06-19T12:40:37.642Z</time>
      </trkpt>
      <trkpt lat="43.86986" lon="2.19971">
        <ele>303.3</ele>
        <time>2020-06-19T12:41:00.467Z</time>
      </trkpt>
      <trkpt lat="43.86702" lon="2.20411">
        <ele>319.7</ele>
        <time>2020-06-19T12:42:37.159Z</time>
      </trkpt>
      <trkpt lat="43.86642" lon="2.20572">
        <ele>326.1</ele>
        <time>2020-06-19T12:43:10.516Z</time>
      </trkpt>
      <trkpt lat="43.86656" lon="2.20763">
        <ele>322.8</ele>
        <time>2020-06-19T12:43:25.475Z</time>
      </trkpt>
      <trkpt lat="43.86644" lon="2.20915">
        <ele>321</ele>
        <time>2020-06-19T12:43:38.486Z</time>
      </trkpt>
      <trkpt lat="43.8658" lon="2.21048">
        <ele>316.6</ele>
        <time>2020-06-19T12:43:49.220Z</time>
      </trkpt>
      <trkpt lat="43.86572" lon="2.21101">
        <ele>316.5</ele>
        <time>2020-06-19T12:43:54.741Z</time>
      </trkpt>
      <trkpt lat="43.86599" lon="2.21212">
        <ele>309</ele>
        <time>2020-06-19T12:44:01.471Z</time>
      </trkpt>
      <trkpt lat="43.86592" lon="2.21266">
        <ele>305.8</ele>
        <time>2020-06-19T12:44:04.623Z</time>
      </trkpt>
      <trkpt lat="43.86446" lon="2.21734">
        <ele>287.9</ele>
        <time>2020-06-19T12:44:35.693Z</time>
      </trkpt>
      <trkpt lat="43.86449" lon="2.21913">
        <ele>286.7</ele>
        <time>2020-06-19T12:44:52.366Z</time>
      </trkpt>
      <trkpt lat="43.86497" lon="2.22022">
        <ele>291.2</ele>
        <time>2020-06-19T12:45:15.858Z</time>
      </trkpt>
      <trkpt lat="43.86493" lon="2.22159">
        <ele>293.6</ele>
        <time>2020-06-19T12:45:34.542Z</time>
      </trkpt>
      <trkpt lat="43.86513" lon="2.2229">
        <ele>292.8</ele>
        <time>2020-06-19T12:45:47.182Z</time>
      </trkpt>
      <trkpt lat="43.86503" lon="2.22538">
        <ele>290.8</ele>
        <time>2020-06-19T12:46:09.745Z</time>
      </trkpt>
      <trkpt lat="43.8652" lon="2.22722">
        <ele>289.4</ele>
        <time>2020-06-19T12:46:26.752Z</time>
      </trkpt>
      <trkpt lat="43.86506" lon="2.2283">
        <ele>287.6</ele>
        <time>2020-06-19T12:46:35.409Z</time>
      </trkpt>
      <trkpt lat="43.86526" lon="2.23079">
        <ele>290</ele>
        <time>2020-06-19T12:47:05.636Z</time>
      </trkpt>
      <trkpt lat="43.86548" lon="2.23155">
        <ele>292.4</ele>
        <time>2020-06-19T12:47:19.461Z</time>
      </trkpt>
      <trkpt lat="43.86668" lon="2.2342">
        <ele>291.3</ele>
        <time>2020-06-19T12:47:50.316Z</time>
      </trkpt>
      <trkpt lat="43.86725" lon="2.23853">
        <ele>299.2</ele>
        <time>2020-06-19T12:48:50.733Z</time>
      </trkpt>
      <trkpt lat="43.86801" lon="2.24125">
        <ele>305.3</ele>
        <time>2020-06-19T12:49:32.826Z</time>
      </trkpt>
      <trkpt lat="43.86831" lon="2.24181">
        <ele>306.4</ele>
        <time>2020-06-19T12:49:42.070Z</time>
      </trkpt>
      <trkpt lat="43.86913" lon="2.24263">
        <ele>302.9</ele>
        <time>2020-06-19T12:49:51.816Z</time>
      </trkpt>
      <trkpt lat="43.87073" lon="2.24378">
        <ele>305.7</ele>
        <time>2020-06-19T12:50:22.697Z</time>
      </trkpt>
      <trkpt lat="43.87085" lon="2.24401">
        <ele>308.2</ele>
        <time>2020-06-19T12:50:32.672Z</time>
      </trkpt>
      <trkpt lat="43.87111" lon="2.24548">
        <ele>310.7</ele>
        <time>2020-06-19T12:50:52.969Z</time>
      </trkpt>
      <trkpt lat="43.87164" lon="2.24709">
        <ele>305.5</ele>
        <time>2020-06-19T12:51:04.559Z</time>
      </trkpt>
      <trkpt lat="43.87273" lon="2.2493">
        <ele>304.2</ele>
        <time>2020-06-19T12:51:30.276Z</time>
      </trkpt>
      <trkpt lat="43.8729" lon="2.25029">
        <ele>305.6</ele>
        <time>2020-06-19T12:51:43.343Z</time>
      </trkpt>
      <trkpt lat="43.87462" lon="2.25635">
        <ele>312</ele>
        <time>2020-06-19T12:53:02.191Z</time>
      </trkpt>
      <trkpt lat="43.87619" lon="2.25954">
        <ele>321.3</ele>
        <time>2020-06-19T12:54:01.153Z</time>
      </trkpt>
      <trkpt lat="43.87724" lon="2.26206">
        <ele>319.2</ele>
        <time>2020-06-19T12:54:27.996Z</time>
      </trkpt>
      <trkpt lat="43.87736" lon="2.26268">
        <ele>318.3</ele>
        <time>2020-06-19T12:54:33.256Z</time>
      </trkpt>
      <trkpt lat="43.87958" lon="2.26433">
        <ele>324.6</ele>
        <time>2020-06-19T12:55:21.274Z</time>
      </trkpt>
      <trkpt lat="43.88078" lon="2.26573">
        <ele>321.7</ele>
        <time>2020-06-19T12:55:39.301Z</time>
      </trkpt>
      <trkpt lat="43.8826" lon="2.2659">
        <ele>320.1</ele>
        <time>2020-06-19T12:56:03.028Z</time>
      </trkpt>
      <trkpt lat="43.88414" lon="2.26681">
        <ele>310.5</ele>
        <time>2020-06-19T12:56:16.174Z</time>
      </trkpt>
      <trkpt lat="43.88466" lon="2.26773">
        <ele>304.9</ele>
        <time>2020-06-19T12:56:22.335Z</time>
      </trkpt>
      <trkpt lat="43.88578" lon="2.26813">
        <ele>305.2</ele>
        <time>2020-06-19T12:56:39.746Z</time>
      </trkpt>
      <trkpt lat="43.88746" lon="2.26918">
        <ele>292</ele>
        <time>2020-06-19T12:56:54.428Z</time>
      </trkpt>
      <trkpt lat="43.8878" lon="2.26928">
        <ele>286.8</ele>
        <time>2020-06-19T12:56:57.197Z</time>
      </trkpt>
      <trkpt lat="43.88859" lon="2.26916">
        <ele>290.7</ele>
        <time>2020-06-19T12:57:17.498Z</time>
      </trkpt>
      <trkpt lat="43.89046" lon="2.27025">
        <ele>278.5</ele>
        <time>2020-06-19T12:57:33.073Z</time>
      </trkpt>
      <trkpt lat="43.89129" lon="2.27046">
        <ele>278.5</ele>
        <time>2020-06-19T12:57:45.473Z</time>
      </trkpt>
      <trkpt lat="43.89233" lon="2.27094">
        <ele>270.6</ele>
        <time>2020-06-19T12:57:54.206Z</time>
      </trkpt>
      <trkpt lat="43.8933" lon="2.27081">
        <ele>266.5</ele>
        <time>2020-06-19T12:58:02.949Z</time>
      </trkpt>
      <trkpt lat="43.89341" lon="2.2709">
        <ele>271.4</ele>
        <time>2020-06-19T12:58:10.188Z</time>
      </trkpt>
      <trkpt lat="43.893" lon="2.27211">
        <ele>270.6</ele>
        <time>2020-06-19T12:58:22.801Z</time>
      </trkpt>
      <trkpt lat="43.89301" lon="2.2731">
        <ele>274.1</ele>
        <time>2020-06-19T12:58:41.025Z</time>
      </trkpt>
      <trkpt lat="43.89283" lon="2.27417">
        <ele>279.8</ele>
        <time>2020-06-19T12:59:04.799Z</time>
      </trkpt>
      <trkpt lat="43.89304" lon="2.27495">
        <ele>284.1</ele>
        <time>2020-06-19T12:59:22.770Z</time>
      </trkpt>
      <trkpt lat="43.89362" lon="2.27602">
        <ele>296.8</ele>
        <time>2020-06-19T13:00:16.075Z</time>
      </trkpt>
      <trkpt lat="43.89355" lon="2.27642">
        <ele>294.6</ele>
        <time>2020-06-19T13:00:18.438Z</time>
      </trkpt>
      <trkpt lat="43.89411" lon="2.27774">
        <ele>296.8</ele>
        <time>2020-06-19T13:00:38.285Z</time>
      </trkpt>
      <trkpt lat="43.89413" lon="2.27894">
        <ele>301.5</ele>
        <time>2020-06-19T13:01:01.164Z</time>
      </trkpt>
      <trkpt lat="43.89371" lon="2.27997">
        <ele>303.1</ele>
        <time>2020-06-19T13:01:16.300Z</time>
      </trkpt>
      <trkpt lat="43.89404" lon="2.28135">
        <ele>308.2</ele>
        <time>2020-06-19T13:01:42.995Z</time>
      </trkpt>
      <trkpt lat="43.89444" lon="2.28195">
        <ele>316.3</ele>
        <time>2020-06-19T13:02:16.387Z</time>
      </trkpt>
      <trkpt lat="43.89476" lon="2.28202">
        <ele>318.9</ele>
        <time>2020-06-19T13:02:26.771Z</time>
      </trkpt>
      <trkpt lat="43.89566" lon="2.28169">
        <ele>331.3</ele>
        <time>2020-06-19T13:03:19.370Z</time>
      </trkpt>
      <trkpt lat="43.89645" lon="2.28162">
        <ele>334</ele>
        <time>2020-06-19T13:03:36.291Z</time>
      </trkpt>
      <trkpt lat="43.89775" lon="2.28281">
        <ele>336.7</ele>
        <time>2020-06-19T13:04:03.501Z</time>
      </trkpt>
      <trkpt lat="43.90088" lon="2.28344">
        <ele>341.6</ele>
        <time>2020-06-19T13:04:57.673Z</time>
      </trkpt>
      <trkpt lat="43.90203" lon="2.28431">
        <ele>338.2</ele>
        <time>2020-06-19T13:05:11.500Z</time>
      </trkpt>
      <trkpt lat="43.90293" lon="2.28539">
        <ele>334.5</ele>
        <time>2020-06-19T13:05:23.390Z</time>
      </trkpt>
      <trkpt lat="43.9041" lon="2.28591">
        <ele>337.4</ele>
        <time>2020-06-19T13:05:46.427Z</time>
      </trkpt>
      <trkpt lat="43.90495" lon="2.28599">
        <ele>339.7</ele>
        <time>2020-06-19T13:06:03.062Z</time>
      </trkpt>
      <trkpt lat="43.9062" lon="2.28807">
        <ele>349.7</ele>
        <time>2020-06-19T13:06:53.626Z</time>
      </trkpt>
      <trkpt lat="43.9068" lon="2.28842">
        <ele>354.6</ele>
        <time>2020-06-19T13:07:13.674Z</time>
      </trkpt>
      <trkpt lat="43.90947" lon="2.28915">
        <ele>361.2</ele>
        <time>2020-06-19T13:08:05.093Z</time>
      </trkpt>
      <trkpt lat="43.90929" lon="2.28921">
        <ele>361.8</ele>
        <time>2020-06-19T13:08:08.962Z</time>
      </trkpt>
      <trkpt lat="43.90933" lon="2.28931">
        <ele>361.7</ele>
        <time>2020-06-19T13:08:09.987Z</time>
      </trkpt>
      <trkpt lat="43.90929" lon="2.28921">
        <ele>361.8</ele>
        <time>2020-06-19T13:08:11.350Z</time>
      </trkpt>
      <trkpt lat="43.90947" lon="2.28915">
        <ele>361.2</ele>
        <time>2020-06-19T13:08:13.175Z</time>
      </trkpt>
      <trkpt lat="43.91117" lon="2.28873">
        <ele>363.4</ele>
        <time>2020-06-19T13:08:41.907Z</time>
      </trkpt>
      <trkpt lat="43.91308" lon="2.28764">
        <ele>360.2</ele>
        <time>2020-06-19T13:09:06.532Z</time>
      </trkpt>
      <trkpt lat="43.91343" lon="2.29264">
        <ele>359.3</ele>
        <time>2020-06-19T13:09:57.768Z</time>
      </trkpt>
      <trkpt lat="43.91391" lon="2.2964">
        <ele>342.8</ele>
        <time>2020-06-19T13:10:18.920Z</time>
      </trkpt>
      <trkpt lat="43.9144" lon="2.29685">
        <ele>345.1</ele>
        <time>2020-06-19T13:10:32.383Z</time>
      </trkpt>
      <trkpt lat="43.91429" lon="2.29816">
        <ele>333.1</ele>
        <time>2020-06-19T13:10:39.953Z</time>
      </trkpt>
      <trkpt lat="43.91439" lon="2.29846">
        <ele>326.8</ele>
        <time>2020-06-19T13:10:41.850Z</time>
      </trkpt>
      <trkpt lat="43.91493" lon="2.29848">
        <ele>333.1</ele>
        <time>2020-06-19T13:11:06.488Z</time>
      </trkpt>
      <trkpt lat="43.91504" lon="2.29863">
        <ele>339.4</ele>
        <time>2020-06-19T13:11:15.229Z</time>
      </trkpt>
      <trkpt lat="43.91493" lon="2.29977">
        <ele>316.1</ele>
        <time>2020-06-19T13:11:21.831Z</time>
      </trkpt>
      <trkpt lat="43.91533" lon="2.30078">
        <ele>314.9</ele>
        <time>2020-06-19T13:11:31.862Z</time>
      </trkpt>
      <trkpt lat="43.91627" lon="2.30084">
        <ele>319.2</ele>
        <time>2020-06-19T13:11:55.381Z</time>
      </trkpt>
      <trkpt lat="43.91662" lon="2.30183">
        <ele>302.2</ele>
        <time>2020-06-19T13:12:01.711Z</time>
      </trkpt>
      <trkpt lat="43.91709" lon="2.30209">
        <ele>311.7</ele>
        <time>2020-06-19T13:12:30.393Z</time>
      </trkpt>
      <trkpt lat="43.91752" lon="2.30278">
        <ele>299.1</ele>
        <time>2020-06-19T13:12:35.630Z</time>
      </trkpt>
      <trkpt lat="43.9178" lon="2.30298">
        <ele>294.2</ele>
        <time>2020-06-19T13:12:38.139Z</time>
      </trkpt>
      <trkpt lat="43.91951" lon="2.30297">
        <ele>279.7</ele>
        <time>2020-06-19T13:12:51.764Z</time>
      </trkpt>
      <trkpt lat="43.91975" lon="2.30286">
        <ele>279.5</ele>
        <time>2020-06-19T13:12:55.090Z</time>
      </trkpt>
      <trkpt lat="43.91983" lon="2.3019">
        <ele>304.1</ele>
        <time>2020-06-19T13:13:34.553Z</time>
      </trkpt>
      <trkpt lat="43.92063" lon="2.30216">
        <ele>288.5</ele>
        <time>2020-06-19T13:13:41.100Z</time>
      </trkpt>
      <trkpt lat="43.92128" lon="2.3021">
        <ele>283</ele>
        <time>2020-06-19T13:13:46.290Z</time>
      </trkpt>
      <trkpt lat="43.9217" lon="2.30222">
        <ele>270.5</ele>
        <time>2020-06-19T13:13:49.707Z</time>
      </trkpt>
      <trkpt lat="43.92224" lon="2.30182">
        <ele>273.3</ele>
        <time>2020-06-19T13:14:05.010Z</time>
      </trkpt>
      <trkpt lat="43.92249" lon="2.30119">
        <ele>295.6</ele>
        <time>2020-06-19T13:14:34.380Z</time>
      </trkpt>
      <trkpt lat="43.92278" lon="2.3012">
        <ele>284.4</ele>
        <time>2020-06-19T13:14:36.692Z</time>
      </trkpt>
      <trkpt lat="43.92335" lon="2.30171">
        <ele>264.4</ele>
        <time>2020-06-19T13:14:42.095Z</time>
      </trkpt>
      <trkpt lat="43.92351" lon="2.30167">
        <ele>264</ele>
        <time>2020-06-19T13:14:43.837Z</time>
      </trkpt>
      <trkpt lat="43.92378" lon="2.30123">
        <ele>283.2</ele>
        <time>2020-06-19T13:15:07.439Z</time>
      </trkpt>
      <trkpt lat="43.92394" lon="2.30126">
        <ele>283.6</ele>
        <time>2020-06-19T13:15:10.509Z</time>
      </trkpt>
      <trkpt lat="43.92416" lon="2.30269">
        <ele>250.1</ele>
        <time>2020-06-19T13:15:18.901Z</time>
      </trkpt>
      <trkpt lat="43.9244" lon="2.30287">
        <ele>249.2</ele>
        <time>2020-06-19T13:15:21.574Z</time>
      </trkpt>
      <trkpt lat="43.92502" lon="2.30262">
        <ele>261.4</ele>
        <time>2020-06-19T13:15:58.174Z</time>
      </trkpt>
      <trkpt lat="43.92571" lon="2.3027">
        <ele>262.5</ele>
        <time>2020-06-19T13:16:10.084Z</time>
      </trkpt>
      <trkpt lat="43.92668" lon="2.30375">
        <ele>261.9</ele>
        <time>2020-06-19T13:16:26.904Z</time>
      </trkpt>
      <trkpt lat="43.9271" lon="2.3056">
        <ele>227.2</ele>
        <time>2020-06-19T13:16:38.036Z</time>
      </trkpt>
      <trkpt lat="43.92777" lon="2.30573">
        <ele>230</ele>
        <time>2020-06-19T13:16:54.050Z</time>
      </trkpt>
      <trkpt lat="43.9283" lon="2.3054">
        <ele>234.2</ele>
        <time>2020-06-19T13:17:11.533Z</time>
      </trkpt>
      <trkpt lat="43.92895" lon="2.30546">
        <ele>227.5</ele>
        <time>2020-06-19T13:17:16.723Z</time>
      </trkpt>
      <trkpt lat="43.9297" lon="2.30512">
        <ele>220.6</ele>
        <time>2020-06-19T13:17:23.010Z</time>
      </trkpt>
      <trkpt lat="43.93102" lon="2.30492">
        <ele>205.7</ele>
        <time>2020-06-19T13:17:33.590Z</time>
      </trkpt>
      <trkpt lat="43.93131" lon="2.30506">
        <ele>198.7</ele>
        <time>2020-06-19T13:17:36.036Z</time>
      </trkpt>
      <trkpt lat="43.93145" lon="2.30554">
        <ele>197</ele>
        <time>2020-06-19T13:17:39.276Z</time>
      </trkpt>
      <trkpt lat="43.93208" lon="2.31194">
        <ele>192.6</ele>
        <time>2020-06-19T13:18:39.230Z</time>
      </trkpt>
      <trkpt lat="43.93252" lon="2.31508">
        <ele>195.1</ele>
        <time>2020-06-19T13:19:16.826Z</time>
      </trkpt>
      <trkpt lat="43.93273" lon="2.32118">
        <ele>201.6</ele>
        <time>2020-06-19T13:20:31.585Z</time>
      </trkpt>
      <trkpt lat="43.93266" lon="2.32244">
        <ele>206</ele>
        <time>2020-06-19T13:20:54.723Z</time>
      </trkpt>
      <trkpt lat="43.93197" lon="2.32626">
        <ele>204.4</ele>
        <time>2020-06-19T13:21:33.092Z</time>
      </trkpt>
      <trkpt lat="43.93213" lon="2.33437">
        <ele>207.4</ele>
        <time>2020-06-19T13:23:03.203Z</time>
      </trkpt>
      <trkpt lat="43.93227" lon="2.3359">
        <ele>210.6</ele>
        <time>2020-06-19T13:23:25.380Z</time>
      </trkpt>
      <trkpt lat="43.93208" lon="2.33728">
        <ele>213.7</ele>
        <time>2020-06-19T13:23:46.053Z</time>
      </trkpt>
      <trkpt lat="43.93132" lon="2.34019">
        <ele>209.1</ele>
        <time>2020-06-19T13:24:11.045Z</time>
      </trkpt>
      <trkpt lat="43.93124" lon="2.34268">
        <ele>213.3</ele>
        <time>2020-06-19T13:24:44.623Z</time>
      </trkpt>
      <trkpt lat="43.93148" lon="2.34471">
        <ele>217.8</ele>
        <time>2020-06-19T13:25:14.791Z</time>
      </trkpt>
      <trkpt lat="43.93215" lon="2.34723">
        <ele>210.1</ele>
        <time>2020-06-19T13:25:32.523Z</time>
      </trkpt>
      <trkpt lat="43.93254" lon="2.34812">
        <ele>202.8</ele>
        <time>2020-06-19T13:25:38.501Z</time>
      </trkpt>
      <trkpt lat="43.93593" lon="2.35237">
        <ele>205.4</ele>
        <time>2020-06-19T13:26:49.320Z</time>
      </trkpt>
      <trkpt lat="43.93882" lon="2.35642">
        <ele>206.8</ele>
        <time>2020-06-19T13:27:51.610Z</time>
      </trkpt>
      <trkpt lat="43.93915" lon="2.35709">
        <ele>211.1</ele>
        <time>2020-06-19T13:28:09.375Z</time>
      </trkpt>
      <trkpt lat="43.94303" lon="2.3685">
        <ele>205</ele>
        <time>2020-06-19T13:30:10.459Z</time>
      </trkpt>
      <trkpt lat="43.94335" lon="2.37064">
        <ele>206</ele>
        <time>2020-06-19T13:30:35.018Z</time>
      </trkpt>
      <trkpt lat="43.94342" lon="2.37266">
        <ele>220.5</ele>
        <time>2020-06-19T13:31:30.445Z</time>
      </trkpt>
      <trkpt lat="43.9437" lon="2.37514">
        <ele>228.2</ele>
        <time>2020-06-19T13:32:14.010Z</time>
      </trkpt>
      <trkpt lat="43.94437" lon="2.37711">
        <ele>207.9</ele>
        <time>2020-06-19T13:32:26.509Z</time>
      </trkpt>
      <trkpt lat="43.94475" lon="2.37774">
        <ele>205.1</ele>
        <time>2020-06-19T13:32:31.571Z</time>
      </trkpt>
      <trkpt lat="43.94437" lon="2.37815">
        <ele>208.3</ele>
        <time>2020-06-19T13:32:45.437Z</time>
      </trkpt>
      <trkpt lat="43.94369" lon="2.37786">
        <ele>225.1</ele>
        <time>2020-06-19T13:33:25.762Z</time>
      </trkpt>
      <trkpt lat="43.9425" lon="2.37902">
        <ele>221.2</ele>
        <time>2020-06-19T13:33:40.966Z</time>
      </trkpt>
      <trkpt lat="43.94186" lon="2.38046">
        <ele>216.8</ele>
        <time>2020-06-19T13:33:52.541Z</time>
      </trkpt>
      <trkpt lat="43.94121" lon="2.38293">
        <ele>210.5</ele>
        <time>2020-06-19T13:34:11.048Z</time>
      </trkpt>
      <trkpt lat="43.94114" lon="2.38359">
        <ele>207.3</ele>
        <time>2020-06-19T13:34:14.556Z</time>
      </trkpt>
      <trkpt lat="43.94136" lon="2.3849">
        <ele>206.4</ele>
        <time>2020-06-19T13:34:27.066Z</time>
      </trkpt>
      <trkpt lat="43.94292" lon="2.38811">
        <ele>215.6</ele>
        <time>2020-06-19T13:35:25.800Z</time>
      </trkpt>
      <trkpt lat="43.94399" lon="2.39284">
        <ele>218.3</ele>
        <time>2020-06-19T13:36:22.173Z</time>
      </trkpt>
      <trkpt lat="43.94376" lon="2.39467">
        <ele>219.4</ele>
        <time>2020-06-19T13:36:43.433Z</time>
      </trkpt>
      <trkpt lat="43.94176" lon="2.40025">
        <ele>225.9</ele>
        <time>2020-06-19T13:37:59.485Z</time>
      </trkpt>
      <trkpt lat="43.94167" lon="2.40222">
        <ele>238.8</ele>
        <time>2020-06-19T13:38:49.322Z</time>
      </trkpt>
      <trkpt lat="43.94197" lon="2.40334">
        <ele>218</ele>
        <time>2020-06-19T13:38:56.178Z</time>
      </trkpt>
      <trkpt lat="43.94229" lon="2.40398">
        <ele>218.4</ele>
        <time>2020-06-19T13:39:05.000Z</time>
      </trkpt>
      <trkpt lat="43.9426" lon="2.40442">
        <ele>222</ele>
        <time>2020-06-19T13:39:19.320Z</time>
      </trkpt>
      <trkpt lat="43.94397" lon="2.40567">
        <ele>225.8</ele>
        <time>2020-06-19T13:39:49.907Z</time>
      </trkpt>
      <trkpt lat="43.94877" lon="2.40707">
        <ele>223.7</ele>
        <time>2020-06-19T13:40:57.556Z</time>
      </trkpt>
      <trkpt lat="43.95018" lon="2.40819">
        <ele>239.1</ele>
        <time>2020-06-19T13:41:56.649Z</time>
      </trkpt>
      <trkpt lat="43.9511" lon="2.40937">
        <ele>228</ele>
        <time>2020-06-19T13:42:06.627Z</time>
      </trkpt>
      <trkpt lat="43.95147" lon="2.41004">
        <ele>222.4</ele>
        <time>2020-06-19T13:42:11.471Z</time>
      </trkpt>
      <trkpt lat="43.95228" lon="2.41212">
        <ele>221.4</ele>
        <time>2020-06-19T13:42:34.427Z</time>
      </trkpt>
      <trkpt lat="43.95263" lon="2.41376">
        <ele>239.7</ele>
        <time>2020-06-19T13:43:44.238Z</time>
      </trkpt>
      <trkpt lat="43.95276" lon="2.41501">
        <ele>230.5</ele>
        <time>2020-06-19T13:43:51.482Z</time>
      </trkpt>
      <trkpt lat="43.95268" lon="2.41584">
        <ele>229.1</ele>
        <time>2020-06-19T13:43:58.044Z</time>
      </trkpt>
      <trkpt lat="43.9524" lon="2.41683">
        <ele>221.3</ele>
        <time>2020-06-19T13:44:04.145Z</time>
      </trkpt>
      <trkpt lat="43.95184" lon="2.41777">
        <ele>228.7</ele>
        <time>2020-06-19T13:44:33.249Z</time>
      </trkpt>
      <trkpt lat="43.95027" lon="2.41903">
        <ele>214</ele>
        <time>2020-06-19T13:44:47.697Z</time>
      </trkpt>
      <trkpt lat="43.94952" lon="2.41997">
        <ele>220.8</ele>
        <time>2020-06-19T13:45:16.980Z</time>
      </trkpt>
      <trkpt lat="43.94902" lon="2.42156">
        <ele>229.7</ele>
        <time>2020-06-19T13:45:54.275Z</time>
      </trkpt>
      <trkpt lat="43.94899" lon="2.42287">
        <ele>222.1</ele>
        <time>2020-06-19T13:46:01.794Z</time>
      </trkpt>
      <trkpt lat="43.94935" lon="2.42419">
        <ele>214.4</ele>
        <time>2020-06-19T13:46:09.891Z</time>
      </trkpt>
      <trkpt lat="43.94985" lon="2.42501">
        <ele>214</ele>
        <time>2020-06-19T13:46:20.427Z</time>
      </trkpt>
      <trkpt lat="43.9506" lon="2.42577">
        <ele>227</ele>
        <time>2020-06-19T13:47:13.057Z</time>
      </trkpt>
      <trkpt lat="43.95356" lon="2.42764">
        <ele>242.1</ele>
        <time>2020-06-19T13:48:34.718Z</time>
      </trkpt>
      <trkpt lat="43.95441" lon="2.4285">
        <ele>238.2</ele>
        <time>2020-06-19T13:48:44.612Z</time>
      </trkpt>
      <trkpt lat="43.95522" lon="2.43009">
        <ele>236.8</ele>
        <time>2020-06-19T13:49:02.558Z</time>
      </trkpt>
      <trkpt lat="43.95547" lon="2.43147">
        <ele>231.3</ele>
        <time>2020-06-19T13:49:10.851Z</time>
      </trkpt>
      <trkpt lat="43.9554" lon="2.43257">
        <ele>222.7</ele>
        <time>2020-06-19T13:49:17.185Z</time>
      </trkpt>
      <trkpt lat="43.95505" lon="2.43369">
        <ele>224.9</ele>
        <time>2020-06-19T13:49:33.947Z</time>
      </trkpt>
      <trkpt lat="43.95474" lon="2.43428">
        <ele>225.9</ele>
        <time>2020-06-19T13:49:43.305Z</time>
      </trkpt>
      <trkpt lat="43.95312" lon="2.43569">
        <ele>215.9</ele>
        <time>2020-06-19T13:49:58.964Z</time>
      </trkpt>
      <trkpt lat="43.95217" lon="2.43696">
        <ele>218</ele>
        <time>2020-06-19T13:50:21.653Z</time>
      </trkpt>
      <trkpt lat="43.95075" lon="2.44066">
        <ele>220.6</ele>
        <time>2020-06-19T13:51:09.818Z</time>
      </trkpt>
      <trkpt lat="43.95061" lon="2.44333">
        <ele>228.9</ele>
        <time>2020-06-19T13:51:56.598Z</time>
      </trkpt>
      <trkpt lat="43.95144" lon="2.44647">
        <ele>217.3</ele>
        <time>2020-06-19T13:52:17.042Z</time>
      </trkpt>
      <trkpt lat="43.95202" lon="2.45074">
        <ele>226.9</ele>
        <time>2020-06-19T13:53:20.998Z</time>
      </trkpt>
      <trkpt lat="43.9518" lon="2.45429">
        <ele>224.3</ele>
        <time>2020-06-19T13:53:53.760Z</time>
      </trkpt>
      <trkpt lat="43.95164" lon="2.45487">
        <ele>220.2</ele>
        <time>2020-06-19T13:53:57.323Z</time>
      </trkpt>
      <trkpt lat="43.95082" lon="2.45623">
        <ele>221.2</ele>
        <time>2020-06-19T13:54:17.544Z</time>
      </trkpt>
      <trkpt lat="43.94904" lon="2.45754">
        <ele>216.3</ele>
        <time>2020-06-19T13:54:39.198Z</time>
      </trkpt>
      <trkpt lat="43.94798" lon="2.45934">
        <ele>216.9</ele>
        <time>2020-06-19T13:55:04.640Z</time>
      </trkpt>
      <trkpt lat="43.94761" lon="2.46065">
        <ele>222</ele>
        <time>2020-06-19T13:55:30.735Z</time>
      </trkpt>
      <trkpt lat="43.94738" lon="2.46233">
        <ele>223.2</ele>
        <time>2020-06-19T13:55:50.604Z</time>
      </trkpt>
      <trkpt lat="43.94623" lon="2.46622">
        <ele>227.1</ele>
        <time>2020-06-19T13:56:41.056Z</time>
      </trkpt>
      <trkpt lat="43.94588" lon="2.4688">
        <ele>239.5</ele>
        <time>2020-06-19T13:57:35.165Z</time>
      </trkpt>
      <trkpt lat="43.9458" lon="2.47358">
        <ele>221.5</ele>
        <time>2020-06-19T13:58:03.367Z</time>
      </trkpt>
      <trkpt lat="43.94438" lon="2.47846">
        <ele>223.9</ele>
        <time>2020-06-19T13:59:02.496Z</time>
      </trkpt>
      <trkpt lat="43.94417" lon="2.47945">
        <ele>226.7</ele>
        <time>2020-06-19T13:59:19.174Z</time>
      </trkpt>
      <trkpt lat="43.94458" lon="2.47973">
        <ele>228.9</ele>
        <time>2020-06-19T13:59:30.775Z</time>
      </trkpt>
      <trkpt lat="43.94312" lon="2.486">
        <ele>224.6</ele>
        <time>2020-06-19T14:00:32.250Z</time>
      </trkpt>
      <trkpt lat="43.94311" lon="2.48853">
        <ele>220.8</ele>
        <time>2020-06-19T14:00:52.620Z</time>
      </trkpt>
      <trkpt lat="43.94341" lon="2.49303">
        <ele>232.4</ele>
        <time>2020-06-19T14:02:03.634Z</time>
      </trkpt>
      <trkpt lat="43.94519" lon="2.49717">
        <ele>230.2</ele>
        <time>2020-06-19T14:02:50.146Z</time>
      </trkpt>
      <trkpt lat="43.94597" lon="2.49805">
        <ele>229.2</ele>
        <time>2020-06-19T14:03:03.012Z</time>
      </trkpt>
      <trkpt lat="43.94647" lon="2.49838">
        <ele>222.2</ele>
        <time>2020-06-19T14:03:07.423Z</time>
      </trkpt>
      <trkpt lat="43.94731" lon="2.49857">
        <ele>227.3</ele>
        <time>2020-06-19T14:03:30.816Z</time>
      </trkpt>
      <trkpt lat="43.94875" lon="2.49867">
        <ele>236.7</ele>
        <time>2020-06-19T14:04:11.966Z</time>
      </trkpt>
      <trkpt lat="43.95063" lon="2.49844">
        <ele>234.9</ele>
        <time>2020-06-19T14:04:36.264Z</time>
      </trkpt>
      <trkpt lat="43.95153" lon="2.49866">
        <ele>235.4</ele>
        <time>2020-06-19T14:04:50.403Z</time>
      </trkpt>
      <trkpt lat="43.95262" lon="2.49951">
        <ele>241.1</ele>
        <time>2020-06-19T14:05:21.628Z</time>
      </trkpt>
      <trkpt lat="43.95466" lon="2.50195">
        <ele>239.7</ele>
        <time>2020-06-19T14:05:58.274Z</time>
      </trkpt>
      <trkpt lat="43.95551" lon="2.50351">
        <ele>234.8</ele>
        <time>2020-06-19T14:06:11.830Z</time>
      </trkpt>
      <trkpt lat="43.95712" lon="2.50732">
        <ele>238.9</ele>
        <time>2020-06-19T14:07:04.831Z</time>
      </trkpt>
      <trkpt lat="43.9586" lon="2.51394">
        <ele>241.9</ele>
        <time>2020-06-19T14:08:22.445Z</time>
      </trkpt>
      <trkpt lat="43.95895" lon="2.51676">
        <ele>237.4</ele>
        <time>2020-06-19T14:08:45.217Z</time>
      </trkpt>
      <trkpt lat="43.95938" lon="2.51786">
        <ele>242.3</ele>
        <time>2020-06-19T14:09:09.058Z</time>
      </trkpt>
      <trkpt lat="43.9601" lon="2.51876">
        <ele>244.2</ele>
        <time>2020-06-19T14:09:26.411Z</time>
      </trkpt>
      <trkpt lat="43.96124" lon="2.51946">
        <ele>240</ele>
        <time>2020-06-19T14:09:38.540Z</time>
      </trkpt>
      <trkpt lat="43.96701" lon="2.52106">
        <ele>243.1</ele>
        <time>2020-06-19T14:11:09.402Z</time>
      </trkpt>
      <trkpt lat="43.97092" lon="2.52273">
        <ele>236.9</ele>
        <time>2020-06-19T14:11:58.385Z</time>
      </trkpt>
      <trkpt lat="43.97193" lon="2.52265">
        <ele>233.1</ele>
        <time>2020-06-19T14:12:07.860Z</time>
      </trkpt>
      <trkpt lat="43.9742" lon="2.52156">
        <ele>232.8</ele>
        <time>2020-06-19T14:12:42.496Z</time>
      </trkpt>
      <trkpt lat="43.97485" lon="2.52147">
        <ele>232.3</ele>
        <time>2020-06-19T14:12:51.123Z</time>
      </trkpt>
      <trkpt lat="43.97567" lon="2.52165">
        <ele>234.2</ele>
        <time>2020-06-19T14:13:06.561Z</time>
      </trkpt>
      <trkpt lat="43.9764" lon="2.52218">
        <ele>236.9</ele>
        <time>2020-06-19T14:13:23.861Z</time>
      </trkpt>
      <trkpt lat="43.97727" lon="2.52328">
        <ele>248.8</ele>
        <time>2020-06-19T14:14:09.336Z</time>
      </trkpt>
      <trkpt lat="43.97842" lon="2.52701">
        <ele>251.4</ele>
        <time>2020-06-19T14:14:56.065Z</time>
      </trkpt>
      <trkpt lat="43.97897" lon="2.52779">
        <ele>247.1</ele>
        <time>2020-06-19T14:15:02.372Z</time>
      </trkpt>
      <trkpt lat="43.97958" lon="2.52833">
        <ele>257.2</ele>
        <time>2020-06-19T14:15:43.374Z</time>
      </trkpt>
      <trkpt lat="43.98006" lon="2.52857">
        <ele>240.1</ele>
        <time>2020-06-19T14:15:47.438Z</time>
      </trkpt>
      <trkpt lat="43.98093" lon="2.52862">
        <ele>231.8</ele>
        <time>2020-06-19T14:15:54.376Z</time>
      </trkpt>
      <trkpt lat="43.983" lon="2.52784">
        <ele>239.5</ele>
        <time>2020-06-19T14:16:41.344Z</time>
      </trkpt>
      <trkpt lat="43.98392" lon="2.52781">
        <ele>244.3</ele>
        <time>2020-06-19T14:17:05.333Z</time>
      </trkpt>
      <trkpt lat="43.98489" lon="2.52828">
        <ele>250.4</ele>
        <time>2020-06-19T14:17:33.462Z</time>
      </trkpt>
      <trkpt lat="43.98633" lon="2.52989">
        <ele>256.5</ele>
        <time>2020-06-19T14:18:12.395Z</time>
      </trkpt>
      <trkpt lat="43.98683" lon="2.53114">
        <ele>252.1</ele>
        <time>2020-06-19T14:18:21.569Z</time>
      </trkpt>
      <trkpt lat="43.98762" lon="2.53584">
        <ele>247.5</ele>
        <time>2020-06-19T14:19:04.165Z</time>
      </trkpt>
      <trkpt lat="43.98819" lon="2.53831">
        <ele>245.3</ele>
        <time>2020-06-19T14:19:27.491Z</time>
      </trkpt>
      <trkpt lat="43.98852" lon="2.54151">
        <ele>245.8</ele>
        <time>2020-06-19T14:20:02.362Z</time>
      </trkpt>
      <trkpt lat="43.98905" lon="2.54295">
        <ele>243</ele>
        <time>2020-06-19T14:20:14.908Z</time>
      </trkpt>
      <trkpt lat="43.98946" lon="2.5435">
        <ele>247.7</ele>
        <time>2020-06-19T14:20:33.511Z</time>
      </trkpt>
      <trkpt lat="43.99015" lon="2.54408">
        <ele>252.8</ele>
        <time>2020-06-19T14:20:56.204Z</time>
      </trkpt>
      <trkpt lat="43.99141" lon="2.54452">
        <ele>252.5</ele>
        <time>2020-06-19T14:21:14.646Z</time>
      </trkpt>
      <trkpt lat="43.99283" lon="2.54462">
        <ele>259</ele>
        <time>2020-06-19T14:21:50.188Z</time>
      </trkpt>
      <trkpt lat="43.99425" lon="2.54449">
        <ele>252.6</ele>
        <time>2020-06-19T14:22:02.620Z</time>
      </trkpt>
      <trkpt lat="43.99508" lon="2.54475">
        <ele>255.2</ele>
        <time>2020-06-19T14:22:19.985Z</time>
      </trkpt>
      <trkpt lat="43.99596" lon="2.54551">
        <ele>264.2</ele>
        <time>2020-06-19T14:22:55.091Z</time>
      </trkpt>
      <trkpt lat="43.99662" lon="2.54631">
        <ele>250.9</ele>
        <time>2020-06-19T14:23:02.069Z</time>
      </trkpt>
      <trkpt lat="43.99722" lon="2.54734">
        <ele>255.2</ele>
        <time>2020-06-19T14:23:25.809Z</time>
      </trkpt>
      <trkpt lat="43.99757" lon="2.54889">
        <ele>262.6</ele>
        <time>2020-06-19T14:23:58.715Z</time>
      </trkpt>
      <trkpt lat="43.99755" lon="2.55045">
        <ele>251.3</ele>
        <time>2020-06-19T14:24:07.658Z</time>
      </trkpt>
      <trkpt lat="43.99678" lon="2.55393">
        <ele>257</ele>
        <time>2020-06-19T14:24:55.737Z</time>
      </trkpt>
      <trkpt lat="43.99669" lon="2.55736">
        <ele>250.6</ele>
        <time>2020-06-19T14:25:21.814Z</time>
      </trkpt>
      <trkpt lat="43.99595" lon="2.56028">
        <ele>240</ele>
        <time>2020-06-19T14:25:40.818Z</time>
      </trkpt>
      <trkpt lat="43.9958" lon="2.56141">
        <ele>237.7</ele>
        <time>2020-06-19T14:25:49.370Z</time>
      </trkpt>
      <trkpt lat="43.9962" lon="2.56254">
        <ele>235.7</ele>
        <time>2020-06-19T14:25:59.360Z</time>
      </trkpt>
      <trkpt lat="43.99676" lon="2.56302">
        <ele>235.5</ele>
        <time>2020-06-19T14:26:08.599Z</time>
      </trkpt>
      <trkpt lat="43.99738" lon="2.56291">
        <ele>238.6</ele>
        <time>2020-06-19T14:26:24.619Z</time>
      </trkpt>
      <trkpt lat="43.9985" lon="2.56302">
        <ele>238.7</ele>
        <time>2020-06-19T14:26:41.257Z</time>
      </trkpt>
      <trkpt lat="43.99881" lon="2.56243">
        <ele>246.9</ele>
        <time>2020-06-19T14:27:11.052Z</time>
      </trkpt>
      <trkpt lat="43.9989" lon="2.56251">
        <ele>238.3</ele>
        <time>2020-06-19T14:27:11.903Z</time>
      </trkpt>
      <trkpt lat="43.99886" lon="2.56304">
        <ele>238.2</ele>
        <time>2020-06-19T14:27:17.321Z</time>
      </trkpt>
      <trkpt lat="44.00014" lon="2.563">
        <ele>244.5</ele>
        <time>2020-06-19T14:27:50.054Z</time>
      </trkpt>
      <trkpt lat="44.00121" lon="2.56338">
        <ele>244.7</ele>
        <time>2020-06-19T14:28:06.559Z</time>
      </trkpt>
      <trkpt lat="44.00216" lon="2.56388">
        <ele>250.1</ele>
        <time>2020-06-19T14:28:33.217Z</time>
      </trkpt>
      <trkpt lat="44.00253" lon="2.56436">
        <ele>252.6</ele>
        <time>2020-06-19T14:28:46.171Z</time>
      </trkpt>
      <trkpt lat="44.00293" lon="2.56544">
        <ele>250.8</ele>
        <time>2020-06-19T14:28:55.971Z</time>
      </trkpt>
      <trkpt lat="44.0031" lon="2.56642">
        <ele>243.6</ele>
        <time>2020-06-19T14:29:01.749Z</time>
      </trkpt>
      <trkpt lat="44.00305" lon="2.56802">
        <ele>237.1</ele>
        <time>2020-06-19T14:29:10.866Z</time>
      </trkpt>
      <trkpt lat="44.00226" lon="2.57224">
        <ele>238.6</ele>
        <time>2020-06-19T14:29:59.078Z</time>
      </trkpt>
      <trkpt lat="44.00248" lon="2.57305">
        <ele>241.6</ele>
        <time>2020-06-19T14:30:14.893Z</time>
      </trkpt>
      <trkpt lat="44.00244" lon="2.57453">
        <ele>243.1</ele>
        <time>2020-06-19T14:30:32.869Z</time>
      </trkpt>
      <trkpt lat="44.00254" lon="2.57524">
        <ele>256.2</ele>
        <time>2020-06-19T14:31:02.371Z</time>
      </trkpt>
      <trkpt lat="44.00441" lon="2.58008">
        <ele>252.6</ele>
        <time>2020-06-19T14:31:53.541Z</time>
      </trkpt>
      <trkpt lat="44.00715" lon="2.5849">
        <ele>245.9</ele>
        <time>2020-06-19T14:32:46.453Z</time>
      </trkpt>
      <trkpt lat="44.00765" lon="2.58664">
        <ele>250</ele>
        <time>2020-06-19T14:33:13.912Z</time>
      </trkpt>
      <trkpt lat="44.00848" lon="2.59254">
        <ele>246.7</ele>
        <time>2020-06-19T14:34:11.034Z</time>
      </trkpt>
      <trkpt lat="44.00855" lon="2.59364">
        <ele>257.6</ele>
        <time>2020-06-19T14:34:56.061Z</time>
      </trkpt>
      <trkpt lat="44.00845" lon="2.59444">
        <ele>262.8</ele>
        <time>2020-06-19T14:35:16.228Z</time>
      </trkpt>
      <trkpt lat="44.00826" lon="2.59522">
        <ele>248.6</ele>
        <time>2020-06-19T14:35:20.947Z</time>
      </trkpt>
      <trkpt lat="44.00701" lon="2.5981">
        <ele>248.4</ele>
        <time>2020-06-19T14:35:56.061Z</time>
      </trkpt>
      <trkpt lat="44.00673" lon="2.60099">
        <ele>250.5</ele>
        <time>2020-06-19T14:36:30.001Z</time>
      </trkpt>
      <trkpt lat="44.00595" lon="2.60356">
        <ele>248.3</ele>
        <time>2020-06-19T14:36:55.347Z</time>
      </trkpt>
      <trkpt lat="44.00584" lon="2.60365">
        <ele>250</ele>
        <time>2020-06-19T14:37:02.557Z</time>
      </trkpt>
      <trkpt lat="44.00551" lon="2.60326">
        <ele>252.3</ele>
        <time>2020-06-19T14:37:13.919Z</time>
      </trkpt>
      <trkpt lat="44.00528" lon="2.60326">
        <ele>257.4</ele>
        <time>2020-06-19T14:37:26.958Z</time>
      </trkpt>
      <trkpt lat="44.00697" lon="2.60495">
        <ele>253.4</ele>
        <time>2020-06-19T14:37:50.689Z</time>
      </trkpt>
      <trkpt lat="44.00788" lon="2.60545">
        <ele>249.7</ele>
        <time>2020-06-19T14:37:59.830Z</time>
      </trkpt>
      <trkpt lat="44.00804" lon="2.60587">
        <ele>252.7</ele>
        <time>2020-06-19T14:38:11.504Z</time>
      </trkpt>
      <trkpt lat="44.00811" lon="2.60691">
        <ele>252.3</ele>
        <time>2020-06-19T14:38:21.713Z</time>
      </trkpt>
      <trkpt lat="44.00775" lon="2.6083">
        <ele>255.2</ele>
        <time>2020-06-19T14:38:42.535Z</time>
      </trkpt>
      <trkpt lat="44.00737" lon="2.60887">
        <ele>257</ele>
        <time>2020-06-19T14:38:54.188Z</time>
      </trkpt>
      <trkpt lat="44.00677" lon="2.60915">
        <ele>254.1</ele>
        <time>2020-06-19T14:38:59.675Z</time>
      </trkpt>
      <trkpt lat="44.0049" lon="2.60882">
        <ele>268.8</ele>
        <time>2020-06-19T14:39:58.995Z</time>
      </trkpt>
      <trkpt lat="44.00357" lon="2.60916">
        <ele>279.1</ele>
        <time>2020-06-19T14:40:40.939Z</time>
      </trkpt>
      <trkpt lat="44.00261" lon="2.61021">
        <ele>256.8</ele>
        <time>2020-06-19T14:40:50.672Z</time>
      </trkpt>
      <trkpt lat="44.00043" lon="2.61395">
        <ele>265.9</ele>
        <time>2020-06-19T14:41:57.699Z</time>
      </trkpt>
      <trkpt lat="43.99887" lon="2.61838">
        <ele>251.3</ele>
        <time>2020-06-19T14:42:29.808Z</time>
      </trkpt>
      <trkpt lat="43.99714" lon="2.62187">
        <ele>250.3</ele>
        <time>2020-06-19T14:43:12.475Z</time>
      </trkpt>
      <trkpt lat="43.99593" lon="2.62308">
        <ele>253</ele>
        <time>2020-06-19T14:43:38.740Z</time>
      </trkpt>
      <trkpt lat="43.99302" lon="2.6265">
        <ele>256.2</ele>
        <time>2020-06-19T14:44:39.415Z</time>
      </trkpt>
      <trkpt lat="43.99119" lon="2.62741">
        <ele>268.9</ele>
        <time>2020-06-19T14:45:34.946Z</time>
      </trkpt>
      <trkpt lat="43.99073" lon="2.62778">
        <ele>265.9</ele>
        <time>2020-06-19T14:45:39.152Z</time>
      </trkpt>
      <trkpt lat="43.98998" lon="2.6288">
        <ele>274.9</ele>
        <time>2020-06-19T14:46:14.373Z</time>
      </trkpt>
      <trkpt lat="43.98948" lon="2.63037">
        <ele>264.3</ele>
        <time>2020-06-19T14:46:24.216Z</time>
      </trkpt>
      <trkpt lat="43.98853" lon="2.6427">
        <ele>260.4</ele>
        <time>2020-06-19T14:48:27.113Z</time>
      </trkpt>
      <trkpt lat="43.98869" lon="2.64453">
        <ele>264</ele>
        <time>2020-06-19T14:48:53.056Z</time>
      </trkpt>
      <trkpt lat="43.98979" lon="2.64852">
        <ele>261.9</ele>
        <time>2020-06-19T14:49:33.959Z</time>
      </trkpt>
      <trkpt lat="43.98981" lon="2.6497">
        <ele>264.6</ele>
        <time>2020-06-19T14:49:51.568Z</time>
      </trkpt>
      <trkpt lat="43.98958" lon="2.65161">
        <ele>260.2</ele>
        <time>2020-06-19T14:50:05.423Z</time>
      </trkpt>
      <trkpt lat="43.98902" lon="2.6542">
        <ele>254.9</ele>
        <time>2020-06-19T14:50:25.680Z</time>
      </trkpt>
      <trkpt lat="43.98795" lon="2.65804">
        <ele>257.7</ele>
        <time>2020-06-19T14:51:13.351Z</time>
      </trkpt>
      <trkpt lat="43.98754" lon="2.65875">
        <ele>255.9</ele>
        <time>2020-06-19T14:51:20.153Z</time>
      </trkpt>
      <trkpt lat="43.98759" lon="2.65951">
        <ele>247.9</ele>
        <time>2020-06-19T14:51:24.528Z</time>
      </trkpt>
      <trkpt lat="43.98805" lon="2.66194">
        <ele>273.6</ele>
        <time>2020-06-19T14:53:07.016Z</time>
      </trkpt>
      <trkpt lat="43.98866" lon="2.66289">
        <ele>339.6</ele>
        <time>2020-06-19T14:53:58.951Z</time>
      </trkpt>
      <trkpt lat="43.99035" lon="2.66419">
        <ele>294</ele>
        <time>2020-06-19T14:54:14.341Z</time>
      </trkpt>
      <trkpt lat="43.99091" lon="2.66438">
        <ele>274.1</ele>
        <time>2020-06-19T14:54:18.935Z</time>
      </trkpt>
      <trkpt lat="43.99219" lon="2.66417">
        <ele>256.1</ele>
        <time>2020-06-19T14:54:29.204Z</time>
      </trkpt>
      <trkpt lat="43.99323" lon="2.66452">
        <ele>252.4</ele>
        <time>2020-06-19T14:54:39.526Z</time>
      </trkpt>
      <trkpt lat="43.99377" lon="2.66499">
        <ele>256.7</ele>
        <time>2020-06-19T14:54:58.019Z</time>
      </trkpt>
      <trkpt lat="43.99433" lon="2.66579">
        <ele>254.9</ele>
        <time>2020-06-19T14:55:06.838Z</time>
      </trkpt>
      <trkpt lat="43.99713" lon="2.67545">
        <ele>259.3</ele>
        <time>2020-06-19T14:57:03.215Z</time>
      </trkpt>
      <trkpt lat="43.99769" lon="2.6784">
        <ele>274.9</ele>
        <time>2020-06-19T14:58:08.657Z</time>
      </trkpt>
      <trkpt lat="43.99775" lon="2.6793">
        <ele>275.8</ele>
        <time>2020-06-19T14:58:19.601Z</time>
      </trkpt>
      <trkpt lat="43.99759" lon="2.6803">
        <ele>270.1</ele>
        <time>2020-06-19T14:58:25.473Z</time>
      </trkpt>
      <trkpt lat="43.99728" lon="2.68103">
        <ele>252.3</ele>
        <time>2020-06-19T14:58:30.332Z</time>
      </trkpt>
      <trkpt lat="43.99525" lon="2.68366">
        <ele>265.7</ele>
        <time>2020-06-19T14:59:40.856Z</time>
      </trkpt>
      <trkpt lat="43.9941" lon="2.6867">
        <ele>264.9</ele>
        <time>2020-06-19T15:00:15.456Z</time>
      </trkpt>
      <trkpt lat="43.99247" lon="2.68902">
        <ele>279.9</ele>
        <time>2020-06-19T15:01:21.607Z</time>
      </trkpt>
      <trkpt lat="43.99184" lon="2.69015">
        <ele>273.9</ele>
        <time>2020-06-19T15:01:29.621Z</time>
      </trkpt>
      <trkpt lat="43.99151" lon="2.69089">
        <ele>274.3</ele>
        <time>2020-06-19T15:01:39.399Z</time>
      </trkpt>
      <trkpt lat="43.9907" lon="2.69388">
        <ele>310.5</ele>
        <time>2020-06-19T15:03:49.706Z</time>
      </trkpt>
      <trkpt lat="43.99034" lon="2.69464">
        <ele>328.4</ele>
        <time>2020-06-19T15:04:26.819Z</time>
      </trkpt>
      <trkpt lat="43.98744" lon="2.699">
        <ele>256</ele>
        <time>2020-06-19T15:05:00.858Z</time>
      </trkpt>
      <trkpt lat="43.98752" lon="2.69864">
        <ele>255.7</ele>
        <time>2020-06-19T15:05:04.279Z</time>
      </trkpt>
      <trkpt lat="43.98725" lon="2.69925">
        <ele>258.2</ele>
        <time>2020-06-19T15:05:17.394Z</time>
      </trkpt>
      <trkpt lat="43.98507" lon="2.70251">
        <ele>263.4</ele>
        <time>2020-06-19T15:06:12.682Z</time>
      </trkpt>
      <trkpt lat="43.98461" lon="2.70345">
        <ele>263.3</ele>
        <time>2020-06-19T15:06:24.483Z</time>
      </trkpt>
      <trkpt lat="43.98414" lon="2.70503">
        <ele>258.7</ele>
        <time>2020-06-19T15:06:36.023Z</time>
      </trkpt>
      <trkpt lat="43.98445" lon="2.70591">
        <ele>262.4</ele>
        <time>2020-06-19T15:06:54.440Z</time>
      </trkpt>
      <trkpt lat="43.98722" lon="2.709">
        <ele>289</ele>
        <time>2020-06-19T15:08:43.508Z</time>
      </trkpt>
      <trkpt lat="43.98785" lon="2.7102">
        <ele>284.4</ele>
        <time>2020-06-19T15:08:53.012Z</time>
      </trkpt>
      <trkpt lat="43.98802" lon="2.71035">
        <ele>284.7</ele>
        <time>2020-06-19T15:08:56.439Z</time>
      </trkpt>
      <trkpt lat="43.9886" lon="2.71039">
        <ele>292</ele>
        <time>2020-06-19T15:09:26.053Z</time>
      </trkpt>
      <trkpt lat="43.9896" lon="2.71092">
        <ele>288.8</ele>
        <time>2020-06-19T15:09:36.883Z</time>
      </trkpt>
      <trkpt lat="43.98975" lon="2.71162">
        <ele>285.7</ele>
        <time>2020-06-19T15:09:40.956Z</time>
      </trkpt>
      <trkpt lat="43.99019" lon="2.71219">
        <ele>288.1</ele>
        <time>2020-06-19T15:09:54.888Z</time>
      </trkpt>
      <trkpt lat="43.99044" lon="2.71293">
        <ele>278.3</ele>
        <time>2020-06-19T15:09:59.575Z</time>
      </trkpt>
      <trkpt lat="43.99094" lon="2.71336">
        <ele>276.8</ele>
        <time>2020-06-19T15:10:05.812Z</time>
      </trkpt>
      <trkpt lat="43.9918" lon="2.71371">
        <ele>284.9</ele>
        <time>2020-06-19T15:10:37.130Z</time>
      </trkpt>
      <trkpt lat="43.99271" lon="2.71428">
        <ele>278.4</ele>
        <time>2020-06-19T15:10:44.502Z</time>
      </trkpt>
      <trkpt lat="43.9933" lon="2.71503">
        <ele>278.7</ele>
        <time>2020-06-19T15:10:56.671Z</time>
      </trkpt>
      <trkpt lat="43.99416" lon="2.71702">
        <ele>279.6</ele>
        <time>2020-06-19T15:11:22.492Z</time>
      </trkpt>
      <trkpt lat="43.99437" lon="2.71849">
        <ele>283.6</ele>
        <time>2020-06-19T15:11:46.495Z</time>
      </trkpt>
      <trkpt lat="43.99423" lon="2.71983">
        <ele>278.9</ele>
        <time>2020-06-19T15:11:54.759Z</time>
      </trkpt>
      <trkpt lat="43.99462" lon="2.72108">
        <ele>280.7</ele>
        <time>2020-06-19T15:12:12.079Z</time>
      </trkpt>
      <trkpt lat="43.99471" lon="2.72203">
        <ele>283.9</ele>
        <time>2020-06-19T15:12:29.388Z</time>
      </trkpt>
      <trkpt lat="43.99457" lon="2.72272">
        <ele>284.7</ele>
        <time>2020-06-19T15:12:38.224Z</time>
      </trkpt>
      <trkpt lat="43.99358" lon="2.72516">
        <ele>289.1</ele>
        <time>2020-06-19T15:13:15.248Z</time>
      </trkpt>
      <trkpt lat="43.99321" lon="2.72762">
        <ele>289.3</ele>
        <time>2020-06-19T15:13:42.093Z</time>
      </trkpt>
      <trkpt lat="43.99255" lon="2.72931">
        <ele>288.5</ele>
        <time>2020-06-19T15:14:00.771Z</time>
      </trkpt>
      <trkpt lat="43.99225" lon="2.731">
        <ele>290.1</ele>
        <time>2020-06-19T15:14:21.616Z</time>
      </trkpt>
      <trkpt lat="43.99192" lon="2.73192">
        <ele>288.6</ele>
        <time>2020-06-19T15:14:29.942Z</time>
      </trkpt>
      <trkpt lat="43.99198" lon="2.73235">
        <ele>289.3</ele>
        <time>2020-06-19T15:14:35.757Z</time>
      </trkpt>
      <trkpt lat="43.99247" lon="2.73336">
        <ele>288.8</ele>
        <time>2020-06-19T15:14:47.602Z</time>
      </trkpt>
      <trkpt lat="43.99304" lon="2.73375">
        <ele>294.5</ele>
        <time>2020-06-19T15:15:09.673Z</time>
      </trkpt>
      <trkpt lat="43.99335" lon="2.73549">
        <ele>297.3</ele>
        <time>2020-06-19T15:15:33.333Z</time>
      </trkpt>
      <trkpt lat="43.99389" lon="2.73706">
        <ele>293.6</ele>
        <time>2020-06-19T15:15:46.048Z</time>
      </trkpt>
      <trkpt lat="43.99388" lon="2.7377">
        <ele>296.7</ele>
        <time>2020-06-19T15:15:59.397Z</time>
      </trkpt>
      <trkpt lat="43.99443" lon="2.74024">
        <ele>304.8</ele>
        <time>2020-06-19T15:16:45.286Z</time>
      </trkpt>
      <trkpt lat="43.99402" lon="2.74173">
        <ele>298.6</ele>
        <time>2020-06-19T15:16:54.551Z</time>
      </trkpt>
      <trkpt lat="43.99413" lon="2.74249">
        <ele>301.2</ele>
        <time>2020-06-19T15:17:08.573Z</time>
      </trkpt>
      <trkpt lat="43.994" lon="2.74331">
        <ele>298.2</ele>
        <time>2020-06-19T15:17:13.635Z</time>
      </trkpt>
      <trkpt lat="43.99353" lon="2.74462">
        <ele>293</ele>
        <time>2020-06-19T15:17:22.481Z</time>
      </trkpt>
      <trkpt lat="43.99287" lon="2.74585">
        <ele>294.8</ele>
        <time>2020-06-19T15:17:41.555Z</time>
      </trkpt>
      <trkpt lat="43.99212" lon="2.74683">
        <ele>299.6</ele>
        <time>2020-06-19T15:18:07.437Z</time>
      </trkpt>
      <trkpt lat="43.99092" lon="2.74885">
        <ele>303</ele>
        <time>2020-06-19T15:18:40.621Z</time>
      </trkpt>
      <trkpt lat="43.99068" lon="2.75005">
        <ele>306</ele>
        <time>2020-06-19T15:18:59.616Z</time>
      </trkpt>
      <trkpt lat="43.98901" lon="2.75143">
        <ele>303.9</ele>
        <time>2020-06-19T15:19:24.210Z</time>
      </trkpt>
      <trkpt lat="43.98847" lon="2.75247">
        <ele>308.3</ele>
        <time>2020-06-19T15:19:47.570Z</time>
      </trkpt>
      <trkpt lat="43.98769" lon="2.75342">
        <ele>308.9</ele>
        <time>2020-06-19T15:20:03.666Z</time>
      </trkpt>
      <trkpt lat="43.98681" lon="2.75603">
        <ele>310.3</ele>
        <time>2020-06-19T15:20:36.155Z</time>
      </trkpt>
      <trkpt lat="43.98703" lon="2.75798">
        <ele>311</ele>
        <time>2020-06-19T15:20:58.015Z</time>
      </trkpt>
      <trkpt lat="43.98749" lon="2.75856">
        <ele>310.7</ele>
        <time>2020-06-19T15:21:06.514Z</time>
      </trkpt>
      <trkpt lat="43.98767" lon="2.75906">
        <ele>314.3</ele>
        <time>2020-06-19T15:21:20.461Z</time>
      </trkpt>
      <trkpt lat="43.98772" lon="2.75988">
        <ele>314.2</ele>
        <time>2020-06-19T15:21:28.944Z</time>
      </trkpt>
      <trkpt lat="43.98818" lon="2.76046">
        <ele>317.1</ele>
        <time>2020-06-19T15:21:44.567Z</time>
      </trkpt>
      <trkpt lat="43.98873" lon="2.76288">
        <ele>327.4</ele>
        <time>2020-06-19T15:22:33.549Z</time>
      </trkpt>
      <trkpt lat="43.98915" lon="2.76324">
        <ele>330.8</ele>
        <time>2020-06-19T15:22:48.023Z</time>
      </trkpt>
      <trkpt lat="43.98965" lon="2.76408">
        <ele>330.7</ele>
        <time>2020-06-19T15:22:59.330Z</time>
      </trkpt>
      <trkpt lat="43.99015" lon="2.76431">
        <ele>332.6</ele>
        <time>2020-06-19T15:23:10.891Z</time>
      </trkpt>
      <trkpt lat="43.99062" lon="2.76475">
        <ele>333.4</ele>
        <time>2020-06-19T15:23:20.457Z</time>
      </trkpt>
      <trkpt lat="43.99187" lon="2.76708">
        <ele>325.8</ele>
        <time>2020-06-19T15:23:40.275Z</time>
      </trkpt>
      <trkpt lat="43.99158" lon="2.76796">
        <ele>320.2</ele>
        <time>2020-06-19T15:23:45.824Z</time>
      </trkpt>
      <trkpt lat="43.99183" lon="2.76756">
        <ele>325.6</ele>
        <time>2020-06-19T15:24:07.434Z</time>
      </trkpt>
      <trkpt lat="43.99385" lon="2.76618">
        <ele>345.3</ele>
        <time>2020-06-19T15:25:24.136Z</time>
      </trkpt>
      <trkpt lat="43.99552" lon="2.76659">
        <ele>354.6</ele>
        <time>2020-06-19T15:26:09.146Z</time>
      </trkpt>
      <trkpt lat="43.99591" lon="2.76615">
        <ele>359.8</ele>
        <time>2020-06-19T15:26:29.027Z</time>
      </trkpt>
      <trkpt lat="43.99697" lon="2.76541">
        <ele>367.1</ele>
        <time>2020-06-19T15:27:02.004Z</time>
      </trkpt>
      <trkpt lat="43.998" lon="2.76528">
        <ele>369.2</ele>
        <time>2020-06-19T15:27:20.678Z</time>
      </trkpt>
      <trkpt lat="43.99935" lon="2.7666">
        <ele>367.1</ele>
        <time>2020-06-19T15:27:41.059Z</time>
      </trkpt>
      <trkpt lat="43.99964" lon="2.76774">
        <ele>375.4</ele>
        <time>2020-06-19T15:28:12.884Z</time>
      </trkpt>
      <trkpt lat="44.00022" lon="2.7692">
        <ele>378.8</ele>
        <time>2020-06-19T15:28:36.700Z</time>
      </trkpt>
      <trkpt lat="44.00053" lon="2.76972">
        <ele>381.7</ele>
        <time>2020-06-19T15:28:50.031Z</time>
      </trkpt>
      <trkpt lat="44.00092" lon="2.77006">
        <ele>390</ele>
        <time>2020-06-19T15:29:16.128Z</time>
      </trkpt>
      <trkpt lat="44.00154" lon="2.77142">
        <ele>393.4</ele>
        <time>2020-06-19T15:29:39.412Z</time>
      </trkpt>
      <trkpt lat="44.00173" lon="2.77153">
        <ele>400.4</ele>
        <time>2020-06-19T15:29:51.079Z</time>
      </trkpt>
      <trkpt lat="44.00271" lon="2.77116">
        <ele>406.5</ele>
        <time>2020-06-19T15:30:19.020Z</time>
      </trkpt>
      <trkpt lat="44.00292" lon="2.77124">
        <ele>406.5</ele>
        <time>2020-06-19T15:30:22.221Z</time>
      </trkpt>
      <trkpt lat="44.00374" lon="2.77191">
        <ele>414</ele>
        <time>2020-06-19T15:30:52.362Z</time>
      </trkpt>
      <trkpt lat="44.00405" lon="2.77277">
        <ele>419.2</ele>
        <time>2020-06-19T15:31:13.653Z</time>
      </trkpt>
      <trkpt lat="44.0044" lon="2.77332">
        <ele>429.8</ele>
        <time>2020-06-19T15:31:43.597Z</time>
      </trkpt>
      <trkpt lat="44.00577" lon="2.77376">
        <ele>448.5</ele>
        <time>2020-06-19T15:33:02.805Z</time>
      </trkpt>
      <trkpt lat="44.00632" lon="2.77382">
        <ele>453</ele>
        <time>2020-06-19T15:33:20.680Z</time>
      </trkpt>
      <trkpt lat="44.00674" lon="2.77412">
        <ele>457.8</ele>
        <time>2020-06-19T15:33:39.023Z</time>
      </trkpt>
      <trkpt lat="44.00704" lon="2.77414">
        <ele>458.3</ele>
        <time>2020-06-19T15:33:44.231Z</time>
      </trkpt>
      <trkpt lat="44.0074" lon="2.77365">
        <ele>458.7</ele>
        <time>2020-06-19T15:33:52.217Z</time>
      </trkpt>
      <trkpt lat="44.00811" lon="2.77177">
        <ele>462.7</ele>
        <time>2020-06-19T15:34:21.748Z</time>
      </trkpt>
      <trkpt lat="44.00824" lon="2.77169">
        <ele>464.9</ele>
        <time>2020-06-19T15:34:29.807Z</time>
      </trkpt>
      <trkpt lat="44.00792" lon="2.77509">
        <ele>453.1</ele>
        <time>2020-06-19T15:34:50.805Z</time>
      </trkpt>
      <trkpt lat="44.00922" lon="2.77842">
        <ele>462.8</ele>
        <time>2020-06-19T15:35:50.233Z</time>
      </trkpt>
      <trkpt lat="44.00999" lon="2.77916">
        <ele>458</ele>
        <time>2020-06-19T15:35:57.968Z</time>
      </trkpt>
      <trkpt lat="44.01033" lon="2.78029">
        <ele>461.8</ele>
        <time>2020-06-19T15:36:19.373Z</time>
      </trkpt>
      <trkpt lat="44.01085" lon="2.78097">
        <ele>475.3</ele>
        <time>2020-06-19T15:36:59.842Z</time>
      </trkpt>
      <trkpt lat="44.01093" lon="2.78128">
        <ele>478.6</ele>
        <time>2020-06-19T15:37:13.270Z</time>
      </trkpt>
      <trkpt lat="44.01086" lon="2.78232">
        <ele>483.1</ele>
        <time>2020-06-19T15:37:33.916Z</time>
      </trkpt>
      <trkpt lat="44.01036" lon="2.78376">
        <ele>485.6</ele>
        <time>2020-06-19T15:37:55.021Z</time>
      </trkpt>
      <trkpt lat="44.01021" lon="2.78472">
        <ele>489.6</ele>
        <time>2020-06-19T15:38:14.001Z</time>
      </trkpt>
      <trkpt lat="44.01032" lon="2.78492">
        <ele>490.4</ele>
        <time>2020-06-19T15:38:18.472Z</time>
      </trkpt>
      <trkpt lat="44.01076" lon="2.78517">
        <ele>493.1</ele>
        <time>2020-06-19T15:38:31.257Z</time>
      </trkpt>
      <trkpt lat="44.01188" lon="2.78695">
        <ele>504.8</ele>
        <time>2020-06-19T15:39:21.106Z</time>
      </trkpt>
      <trkpt lat="44.01229" lon="2.78905">
        <ele>502.8</ele>
        <time>2020-06-19T15:39:40.416Z</time>
      </trkpt>
      <trkpt lat="44.01259" lon="2.7899">
        <ele>505</ele>
        <time>2020-06-19T15:39:54.631Z</time>
      </trkpt>
      <trkpt lat="44.01312" lon="2.79071">
        <ele>504.6</ele>
        <time>2020-06-19T15:40:05.371Z</time>
      </trkpt>
      <trkpt lat="44.01336" lon="2.79188">
        <ele>512</ele>
        <time>2020-06-19T15:40:34.443Z</time>
      </trkpt>
      <trkpt lat="44.01482" lon="2.79267">
        <ele>531.5</ele>
        <time>2020-06-19T15:41:53.069Z</time>
      </trkpt>
      <trkpt lat="44.01531" lon="2.79254">
        <ele>535.7</ele>
        <time>2020-06-19T15:42:09.591Z</time>
      </trkpt>
      <trkpt lat="44.01593" lon="2.79266">
        <ele>541.9</ele>
        <time>2020-06-19T15:42:33.295Z</time>
      </trkpt>
      <trkpt lat="44.01654" lon="2.79256">
        <ele>545</ele>
        <time>2020-06-19T15:42:49.129Z</time>
      </trkpt>
      <trkpt lat="44.01754" lon="2.79275">
        <ele>550.7</ele>
        <time>2020-06-19T15:43:16.217Z</time>
      </trkpt>
      <trkpt lat="44.01854" lon="2.79401">
        <ele>573.4</ele>
        <time>2020-06-19T15:44:32.717Z</time>
      </trkpt>
      <trkpt lat="44.01969" lon="2.79464">
        <ele>594.7</ele>
        <time>2020-06-19T15:45:42.787Z</time>
      </trkpt>
      <trkpt lat="44.02006" lon="2.79464">
        <ele>602.3</ele>
        <time>2020-06-19T15:46:03.762Z</time>
      </trkpt>
      <trkpt lat="44.02151" lon="2.79408">
        <ele>607.8</ele>
        <time>2020-06-19T15:46:37.011Z</time>
      </trkpt>
      <trkpt lat="44.02244" lon="2.79344">
        <ele>612.2</ele>
        <time>2020-06-19T15:47:01.947Z</time>
      </trkpt>
      <trkpt lat="44.02331" lon="2.79351">
        <ele>620.8</ele>
        <time>2020-06-19T15:47:34.833Z</time>
      </trkpt>
      <trkpt lat="44.02366" lon="2.79388">
        <ele>625.5</ele>
        <time>2020-06-19T15:47:52.849Z</time>
      </trkpt>
      <trkpt lat="44.02252" lon="2.79621">
        <ele>637.3</ele>
        <time>2020-06-19T15:48:47.896Z</time>
      </trkpt>
      <trkpt lat="44.0218" lon="2.79741">
        <ele>644.5</ele>
        <time>2020-06-19T15:49:19.709Z</time>
      </trkpt>
      <trkpt lat="44.02082" lon="2.79844">
        <ele>652.5</ele>
        <time>2020-06-19T15:49:54.751Z</time>
      </trkpt>
      <trkpt lat="44.02019" lon="2.79985">
        <ele>652.8</ele>
        <time>2020-06-19T15:50:12.709Z</time>
      </trkpt>
      <trkpt lat="44.01883" lon="2.80164">
        <ele>656.9</ele>
        <time>2020-06-19T15:50:47.135Z</time>
      </trkpt>
      <trkpt lat="44.01728" lon="2.80245">
        <ele>660.8</ele>
        <time>2020-06-19T15:51:18.166Z</time>
      </trkpt>
      <trkpt lat="44.01695" lon="2.80292">
        <ele>658</ele>
        <time>2020-06-19T15:51:21.819Z</time>
      </trkpt>
      <trkpt lat="44.01681" lon="2.80712">
        <ele>648.5</ele>
        <time>2020-06-19T15:51:51.936Z</time>
      </trkpt>
      <trkpt lat="44.01652" lon="2.80924">
        <ele>644.3</ele>
        <time>2020-06-19T15:52:08.123Z</time>
      </trkpt>
      <trkpt lat="44.01633" lon="2.81218">
        <ele>630.7</ele>
        <time>2020-06-19T15:52:23.930Z</time>
      </trkpt>
      <trkpt lat="44.01536" lon="2.81847">
        <ele>625.5</ele>
        <time>2020-06-19T15:53:22.164Z</time>
      </trkpt>
      <trkpt lat="44.01568" lon="2.82046">
        <ele>625.8</ele>
        <time>2020-06-19T15:53:44.129Z</time>
      </trkpt>
      <trkpt lat="44.01662" lon="2.82286">
        <ele>621.5</ele>
        <time>2020-06-19T15:54:05.847Z</time>
      </trkpt>
      <trkpt lat="44.01606" lon="2.8242">
        <ele>617</ele>
        <time>2020-06-19T15:54:16.008Z</time>
      </trkpt>
      <trkpt lat="44.01577" lon="2.82598">
        <ele>616.7</ele>
        <time>2020-06-19T15:54:34.646Z</time>
      </trkpt>
      <trkpt lat="44.01512" lon="2.82735">
        <ele>611.4</ele>
        <time>2020-06-19T15:54:44.964Z</time>
      </trkpt>
      <trkpt lat="44.01518" lon="2.82841">
        <ele>607.5</ele>
        <time>2020-06-19T15:54:51.297Z</time>
      </trkpt>
      <trkpt lat="44.01574" lon="2.83188">
        <ele>614.1</ele>
        <time>2020-06-19T15:55:40.522Z</time>
      </trkpt>
      <trkpt lat="44.01597" lon="2.83455">
        <ele>622.7</ele>
        <time>2020-06-19T15:56:28.480Z</time>
      </trkpt>
      <trkpt lat="44.01623" lon="2.83527">
        <ele>625.1</ele>
        <time>2020-06-19T15:56:42.202Z</time>
      </trkpt>
      <trkpt lat="44.01784" lon="2.83799">
        <ele>624.5</ele>
        <time>2020-06-19T15:57:18.133Z</time>
      </trkpt>
      <trkpt lat="44.01876" lon="2.84023">
        <ele>622.5</ele>
        <time>2020-06-19T15:57:41.624Z</time>
      </trkpt>
      <trkpt lat="44.01966" lon="2.84395">
        <ele>625.9</ele>
        <time>2020-06-19T15:58:28.251Z</time>
      </trkpt>
      <trkpt lat="44.02042" lon="2.84613">
        <ele>627</ele>
        <time>2020-06-19T15:58:55.428Z</time>
      </trkpt>
      <trkpt lat="44.02035" lon="2.84897">
        <ele>628.2</ele>
        <time>2020-06-19T15:59:27.169Z</time>
      </trkpt>
      <trkpt lat="44.02137" lon="2.85">
        <ele>628.5</ele>
        <time>2020-06-19T15:59:46.108Z</time>
      </trkpt>
      <trkpt lat="44.02168" lon="2.85079">
        <ele>627</ele>
        <time>2020-06-19T15:59:53.155Z</time>
      </trkpt>
      <trkpt lat="44.02089" lon="2.85285">
        <ele>631.1</ele>
        <time>2020-06-19T16:00:24.939Z</time>
      </trkpt>
      <trkpt lat="44.02079" lon="2.8541">
        <ele>631.6</ele>
        <time>2020-06-19T16:00:38.941Z</time>
      </trkpt>
      <trkpt lat="44.02132" lon="2.85604">
        <ele>620.7</ele>
        <time>2020-06-19T16:00:50.831Z</time>
      </trkpt>
      <trkpt lat="44.02182" lon="2.85967">
        <ele>621.7</ele>
        <time>2020-06-19T16:01:31.287Z</time>
      </trkpt>
      <trkpt lat="44.02215" lon="2.86115">
        <ele>618.1</ele>
        <time>2020-06-19T16:01:42.284Z</time>
      </trkpt>
      <trkpt lat="44.02214" lon="2.86238">
        <ele>617.8</ele>
        <time>2020-06-19T16:01:54.642Z</time>
      </trkpt>
      <trkpt lat="44.02079" lon="2.86707">
        <ele>626.2</ele>
        <time>2020-06-19T16:03:02.380Z</time>
      </trkpt>
      <trkpt lat="44.01944" lon="2.87009">
        <ele>642.8</ele>
        <time>2020-06-19T16:04:15.214Z</time>
      </trkpt>
      <trkpt lat="44.01894" lon="2.87319">
        <ele>641.4</ele>
        <time>2020-06-19T16:04:45.910Z</time>
      </trkpt>
      <trkpt lat="44.01856" lon="2.87393">
        <ele>639.6</ele>
        <time>2020-06-19T16:04:52.697Z</time>
      </trkpt>
      <trkpt lat="44.01898" lon="2.87402">
        <ele>638.8</ele>
        <time>2020-06-19T16:04:57.563Z</time>
      </trkpt>
      <trkpt lat="44.01955" lon="2.8737">
        <ele>639.3</ele>
        <time>2020-06-19T16:05:07.325Z</time>
      </trkpt>
      <trkpt lat="44.01981" lon="2.8737">
        <ele>639.2</ele>
        <time>2020-06-19T16:05:10.934Z</time>
      </trkpt>
      <trkpt lat="44.02087" lon="2.87478">
        <ele>629.8</ele>
        <time>2020-06-19T16:05:21.404Z</time>
      </trkpt>
      <trkpt lat="44.02209" lon="2.87524">
        <ele>621.5</ele>
        <time>2020-06-19T16:05:30.702Z</time>
      </trkpt>
      <trkpt lat="44.02285" lon="2.87501">
        <ele>617.9</ele>
        <time>2020-06-19T16:05:37.417Z</time>
      </trkpt>
      <trkpt lat="44.02373" lon="2.87501">
        <ele>613.9</ele>
        <time>2020-06-19T16:05:45.071Z</time>
      </trkpt>
      <trkpt lat="44.0241" lon="2.8753">
        <ele>613.4</ele>
        <time>2020-06-19T16:05:50.380Z</time>
      </trkpt>
      <trkpt lat="44.02428" lon="2.87573">
        <ele>611.2</ele>
        <time>2020-06-19T16:05:53.098Z</time>
      </trkpt>
      <trkpt lat="44.02481" lon="2.8761">
        <ele>608</ele>
        <time>2020-06-19T16:05:57.888Z</time>
      </trkpt>
      <trkpt lat="44.02595" lon="2.87618">
        <ele>607.3</ele>
        <time>2020-06-19T16:06:13.224Z</time>
      </trkpt>
      <trkpt lat="44.02664" lon="2.8768">
        <ele>596.8</ele>
        <time>2020-06-19T16:06:19.769Z</time>
      </trkpt>
      <trkpt lat="44.02775" lon="2.87645">
        <ele>590.4</ele>
        <time>2020-06-19T16:06:28.791Z</time>
      </trkpt>
      <trkpt lat="44.02846" lon="2.87575">
        <ele>588.2</ele>
        <time>2020-06-19T16:06:38.047Z</time>
      </trkpt>
      <trkpt lat="44.02964" lon="2.87554">
        <ele>578.3</ele>
        <time>2020-06-19T16:06:47.526Z</time>
      </trkpt>
      <trkpt lat="44.02965" lon="2.87573">
        <ele>576.5</ele>
        <time>2020-06-19T16:06:48.618Z</time>
      </trkpt>
      <trkpt lat="44.02894" lon="2.87631">
        <ele>575.5</ele>
        <time>2020-06-19T16:06:58.861Z</time>
      </trkpt>
      <trkpt lat="44.02892" lon="2.87677">
        <ele>572.1</ele>
        <time>2020-06-19T16:07:01.501Z</time>
      </trkpt>
      <trkpt lat="44.02908" lon="2.87686">
        <ele>571.4</ele>
        <time>2020-06-19T16:07:03.072Z</time>
      </trkpt>
      <trkpt lat="44.03079" lon="2.87633">
        <ele>560.5</ele>
        <time>2020-06-19T16:07:16.307Z</time>
      </trkpt>
      <trkpt lat="44.03177" lon="2.87631">
        <ele>552.9</ele>
        <time>2020-06-19T16:07:24.116Z</time>
      </trkpt>
      <trkpt lat="44.03238" lon="2.87583">
        <ele>543</ele>
        <time>2020-06-19T16:07:29.701Z</time>
      </trkpt>
      <trkpt lat="44.03276" lon="2.8757">
        <ele>538.4</ele>
        <time>2020-06-19T16:07:32.819Z</time>
      </trkpt>
      <trkpt lat="44.03494" lon="2.87597">
        <ele>522.1</ele>
        <time>2020-06-19T16:07:50.258Z</time>
      </trkpt>
      <trkpt lat="44.03546" lon="2.87637">
        <ele>518.9</ele>
        <time>2020-06-19T16:07:55.062Z</time>
      </trkpt>
      <trkpt lat="44.03624" lon="2.87747">
        <ele>510.4</ele>
        <time>2020-06-19T16:08:03.912Z</time>
      </trkpt>
      <trkpt lat="44.03775" lon="2.87835">
        <ele>502</ele>
        <time>2020-06-19T16:08:17.437Z</time>
      </trkpt>
      <trkpt lat="44.03928" lon="2.87886">
        <ele>482.1</ele>
        <time>2020-06-19T16:08:29.973Z</time>
      </trkpt>
      <trkpt lat="44.04026" lon="2.87962">
        <ele>463</ele>
        <time>2020-06-19T16:08:38.913Z</time>
      </trkpt>
      <trkpt lat="44.04081" lon="2.88024">
        <ele>468.7</ele>
        <time>2020-06-19T16:09:01.653Z</time>
      </trkpt>
      <trkpt lat="44.0437" lon="2.88186">
        <ele>435.7</ele>
        <time>2020-06-19T16:09:26.480Z</time>
      </trkpt>
      <trkpt lat="44.04422" lon="2.88195">
        <ele>418.5</ele>
        <time>2020-06-19T16:09:30.655Z</time>
      </trkpt>
      <trkpt lat="44.04461" lon="2.88218">
        <ele>419.4</ele>
        <time>2020-06-19T16:09:38.385Z</time>
      </trkpt>
      <trkpt lat="44.04533" lon="2.88219">
        <ele>399.4</ele>
        <time>2020-06-19T16:09:44.123Z</time>
      </trkpt>
      <trkpt lat="44.04529" lon="2.88318">
        <ele>406.7</ele>
        <time>2020-06-19T16:10:12.022Z</time>
      </trkpt>
      <trkpt lat="44.04505" lon="2.88394">
        <ele>402.1</ele>
        <time>2020-06-19T16:10:16.777Z</time>
      </trkpt>
      <trkpt lat="44.04498" lon="2.88491">
        <ele>409.5</ele>
        <time>2020-06-19T16:10:45.106Z</time>
      </trkpt>
      <trkpt lat="44.04498" lon="2.88603">
        <ele>406.8</ele>
        <time>2020-06-19T16:10:52.953Z</time>
      </trkpt>
      <trkpt lat="44.04528" lon="2.88667">
        <ele>378.7</ele>
        <time>2020-06-19T16:10:57.329Z</time>
      </trkpt>
      <trkpt lat="44.04524" lon="2.88729">
        <ele>375.9</ele>
        <time>2020-06-19T16:11:00.700Z</time>
      </trkpt>
      <trkpt lat="44.04469" lon="2.88809">
        <ele>387.5</ele>
        <time>2020-06-19T16:11:45.809Z</time>
      </trkpt>
      <trkpt lat="44.04406" lon="2.88959">
        <ele>376.6</ele>
        <time>2020-06-19T16:11:55.759Z</time>
      </trkpt>
      <trkpt lat="44.04352" lon="2.8902">
        <ele>374.1</ele>
        <time>2020-06-19T16:12:02.378Z</time>
      </trkpt>
      <trkpt lat="44.04343" lon="2.89047">
        <ele>370.5</ele>
        <time>2020-06-19T16:12:04.083Z</time>
      </trkpt>
      <trkpt lat="44.04518" lon="2.88899">
        <ele>348</ele>
        <time>2020-06-19T16:12:20.401Z</time>
      </trkpt>
      <trkpt lat="44.04535" lon="2.88896">
        <ele>347.4</ele>
        <time>2020-06-19T16:12:22.047Z</time>
      </trkpt>
      <trkpt lat="44.04553" lon="2.88933">
        <ele>347.8</ele>
        <time>2020-06-19T16:12:27.374Z</time>
      </trkpt>
      <trkpt lat="44.04612" lon="2.8893">
        <ele>342.7</ele>
        <time>2020-06-19T16:12:32.079Z</time>
      </trkpt>
      <trkpt lat="44.04636" lon="2.88962">
        <ele>344</ele>
        <time>2020-06-19T16:12:39.691Z</time>
      </trkpt>
      <trkpt lat="44.04681" lon="2.891">
        <ele>353.8</ele>
        <time>2020-06-19T16:13:17.616Z</time>
      </trkpt>
      <trkpt lat="44.04834" lon="2.89395">
        <ele>369.5</ele>
        <time>2020-06-19T16:14:29.547Z</time>
      </trkpt>
      <trkpt lat="44.04879" lon="2.89457">
        <ele>371.6</ele>
        <time>2020-06-19T16:14:42.915Z</time>
      </trkpt>
      <trkpt lat="44.04887" lon="2.89498">
        <ele>371.5</ele>
        <time>2020-06-19T16:14:47.189Z</time>
      </trkpt>
      <trkpt lat="44.04898" lon="2.89495">
        <ele>370.1</ele>
        <time>2020-06-19T16:14:48.082Z</time>
      </trkpt>
      <trkpt lat="44.04937" lon="2.89549">
        <ele>368.5</ele>
        <time>2020-06-19T16:14:53.698Z</time>
      </trkpt>
      <trkpt lat="44.04984" lon="2.89579">
        <ele>363.3</ele>
        <time>2020-06-19T16:14:57.819Z</time>
      </trkpt>
      <trkpt lat="44.05039" lon="2.8965">
        <ele>357.2</ele>
        <time>2020-06-19T16:15:03.797Z</time>
      </trkpt>
      <trkpt lat="44.05107" lon="2.89791">
        <ele>357.1</ele>
        <time>2020-06-19T16:15:21.511Z</time>
      </trkpt>
      <trkpt lat="44.05106" lon="2.89828">
        <ele>361.4</ele>
        <time>2020-06-19T16:15:36.597Z</time>
      </trkpt>
      <trkpt lat="44.05142" lon="2.89884">
        <ele>370.2</ele>
        <time>2020-06-19T16:16:07.209Z</time>
      </trkpt>
      <trkpt lat="44.05251" lon="2.89931">
        <ele>352.8</ele>
        <time>2020-06-19T16:16:16.302Z</time>
      </trkpt>
      <trkpt lat="44.05383" lon="2.90025">
        <ele>363.9</ele>
        <time>2020-06-19T16:17:01.824Z</time>
      </trkpt>
      <trkpt lat="44.05464" lon="2.90033">
        <ele>353.7</ele>
        <time>2020-06-19T16:17:08.294Z</time>
      </trkpt>
      <trkpt lat="44.05663" lon="2.90126">
        <ele>339.8</ele>
        <time>2020-06-19T16:17:23.670Z</time>
      </trkpt>
      <trkpt lat="44.05747" lon="2.90247">
        <ele>336.4</ele>
        <time>2020-06-19T16:17:36.138Z</time>
      </trkpt>
      <trkpt lat="44.05863" lon="2.90213">
        <ele>331.8</ele>
        <time>2020-06-19T16:17:47.108Z</time>
      </trkpt>
      <trkpt lat="44.05884" lon="2.9022">
        <ele>334.8</ele>
        <time>2020-06-19T16:17:59.349Z</time>
      </trkpt>
      <trkpt lat="44.05828" lon="2.9048">
        <ele>334</ele>
        <time>2020-06-19T16:18:26.323Z</time>
      </trkpt>
      <trkpt lat="44.05768" lon="2.90645">
        <ele>338.7</ele>
        <time>2020-06-19T16:18:55.214Z</time>
      </trkpt>
      <trkpt lat="44.05651" lon="2.90794">
        <ele>328.3</ele>
        <time>2020-06-19T16:19:06.888Z</time>
      </trkpt>
      <trkpt lat="44.05594" lon="2.90846">
        <ele>329.2</ele>
        <time>2020-06-19T16:19:18.283Z</time>
      </trkpt>
      <trkpt lat="44.05529" lon="2.90961">
        <ele>330.2</ele>
        <time>2020-06-19T16:19:35.212Z</time>
      </trkpt>
      <trkpt lat="44.05499" lon="2.91066">
        <ele>328.3</ele>
        <time>2020-06-19T16:19:44.032Z</time>
      </trkpt>
      <trkpt lat="44.05499" lon="2.91113">
        <ele>327.5</ele>
        <time>2020-06-19T16:19:47.689Z</time>
      </trkpt>
      <trkpt lat="44.05539" lon="2.91238">
        <ele>333.4</ele>
        <time>2020-06-19T16:20:14.732Z</time>
      </trkpt>
      <trkpt lat="44.0562" lon="2.91392">
        <ele>339.3</ele>
        <time>2020-06-19T16:20:47.998Z</time>
      </trkpt>
      <trkpt lat="44.05719" lon="2.91502">
        <ele>335.8</ele>
        <time>2020-06-19T16:21:01.132Z</time>
      </trkpt>
      <trkpt lat="44.05829" lon="2.91578">
        <ele>340.9</ele>
        <time>2020-06-19T16:21:30.263Z</time>
      </trkpt>
      <trkpt lat="44.06001" lon="2.9165">
        <ele>341.4</ele>
        <time>2020-06-19T16:21:57.352Z</time>
      </trkpt>
      <trkpt lat="44.06069" lon="2.91659">
        <ele>342.4</ele>
        <time>2020-06-19T16:22:08.946Z</time>
      </trkpt>
      <trkpt lat="44.06209" lon="2.91706">
        <ele>333.9</ele>
        <time>2020-06-19T16:22:20.105Z</time>
      </trkpt>
      <trkpt lat="44.06263" lon="2.91706">
        <ele>332.8</ele>
        <time>2020-06-19T16:22:26.178Z</time>
      </trkpt>
      <trkpt lat="44.06315" lon="2.91674">
        <ele>333.1</ele>
        <time>2020-06-19T16:22:34.959Z</time>
      </trkpt>
      <trkpt lat="44.06381" lon="2.91654">
        <ele>335.1</ele>
        <time>2020-06-19T16:22:48.581Z</time>
      </trkpt>
      <trkpt lat="44.06454" lon="2.91571">
        <ele>346.9</ele>
        <time>2020-06-19T16:23:36.324Z</time>
      </trkpt>
      <trkpt lat="44.06536" lon="2.91533">
        <ele>341.1</ele>
        <time>2020-06-19T16:23:43.210Z</time>
      </trkpt>
      <trkpt lat="44.06644" lon="2.91504">
        <ele>334.4</ele>
        <time>2020-06-19T16:23:51.605Z</time>
      </trkpt>
      <trkpt lat="44.06726" lon="2.91458">
        <ele>337.4</ele>
        <time>2020-06-19T16:24:10.459Z</time>
      </trkpt>
      <trkpt lat="44.06818" lon="2.91314">
        <ele>346.4</ele>
        <time>2020-06-19T16:24:49.920Z</time>
      </trkpt>
      <trkpt lat="44.07081" lon="2.91084">
        <ele>342.1</ele>
        <time>2020-06-19T16:25:27.732Z</time>
      </trkpt>
      <trkpt lat="44.07197" lon="2.91034">
        <ele>342.2</ele>
        <time>2020-06-19T16:25:45.716Z</time>
      </trkpt>
      <trkpt lat="44.07273" lon="2.91035">
        <ele>342.2</ele>
        <time>2020-06-19T16:25:56.886Z</time>
      </trkpt>
      <trkpt lat="44.07327" lon="2.91088">
        <ele>336.5</ele>
        <time>2020-06-19T16:26:02.151Z</time>
      </trkpt>
      <trkpt lat="44.07351" lon="2.91137">
        <ele>338.3</ele>
        <time>2020-06-19T16:26:12.366Z</time>
      </trkpt>
      <trkpt lat="44.07542" lon="2.91383">
        <ele>340.4</ele>
        <time>2020-06-19T16:26:53.665Z</time>
      </trkpt>
      <trkpt lat="44.07581" lon="2.91545">
        <ele>328.9</ele>
        <time>2020-06-19T16:27:03.445Z</time>
      </trkpt>
      <trkpt lat="44.07618" lon="2.91611">
        <ele>334.7</ele>
        <time>2020-06-19T16:27:25.661Z</time>
      </trkpt>
      <trkpt lat="44.07835" lon="2.91769">
        <ele>342</ele>
        <time>2020-06-19T16:28:15.173Z</time>
      </trkpt>
      <trkpt lat="44.07988" lon="2.91971">
        <ele>340.2</ele>
        <time>2020-06-19T16:28:42.689Z</time>
      </trkpt>
      <trkpt lat="44.08192" lon="2.92095">
        <ele>340.6</ele>
        <time>2020-06-19T16:29:15.953Z</time>
      </trkpt>
      <trkpt lat="44.08172" lon="2.92204">
        <ele>351.1</ele>
        <time>2020-06-19T16:29:59.557Z</time>
      </trkpt>
      <trkpt lat="44.08154" lon="2.92205">
        <ele>352.8</ele>
        <time>2020-06-19T16:30:06.084Z</time>
      </trkpt>
      <trkpt lat="44.07984" lon="2.92135">
        <ele>361.8</ele>
        <time>2020-06-19T16:30:51.875Z</time>
      </trkpt>
      <trkpt lat="44.07827" lon="2.92006">
        <ele>363.1</ele>
        <time>2020-06-19T16:31:20.542Z</time>
      </trkpt>
      <trkpt lat="44.07754" lon="2.92008">
        <ele>369.3</ele>
        <time>2020-06-19T16:31:44.872Z</time>
      </trkpt>
      <trkpt lat="44.07664" lon="2.92074">
        <ele>373.3</ele>
        <time>2020-06-19T16:32:08.239Z</time>
      </trkpt>
      <trkpt lat="44.07631" lon="2.9211">
        <ele>377.6</ele>
        <time>2020-06-19T16:32:24.674Z</time>
      </trkpt>
      <trkpt lat="44.07483" lon="2.92434">
        <ele>382.6</ele>
        <time>2020-06-19T16:33:13.286Z</time>
      </trkpt>
      <trkpt lat="44.07375" lon="2.92543">
        <ele>380.3</ele>
        <time>2020-06-19T16:33:28.857Z</time>
      </trkpt>
      <trkpt lat="44.07287" lon="2.92676">
        <ele>375.7</ele>
        <time>2020-06-19T16:33:41.283Z</time>
      </trkpt>
      <trkpt lat="44.07234" lon="2.92817">
        <ele>369</ele>
        <time>2020-06-19T16:33:50.172Z</time>
      </trkpt>
      <trkpt lat="44.07229" lon="2.92857">
        <ele>367.6</ele>
        <time>2020-06-19T16:33:52.652Z</time>
      </trkpt>
      <trkpt lat="44.0725" lon="2.92932">
        <ele>363.1</ele>
        <time>2020-06-19T16:33:57.260Z</time>
      </trkpt>
      <trkpt lat="44.07334" lon="2.93011">
        <ele>361.7</ele>
        <time>2020-06-19T16:34:09.607Z</time>
      </trkpt>
      <trkpt lat="44.0743" lon="2.93131">
        <ele>363</ele>
        <time>2020-06-19T16:34:30.499Z</time>
      </trkpt>
      <trkpt lat="44.07621" lon="2.9325">
        <ele>356.8</ele>
        <time>2020-06-19T16:34:51.736Z</time>
      </trkpt>
      <trkpt lat="44.07965" lon="2.93329">
        <ele>363.4</ele>
        <time>2020-06-19T16:35:53.728Z</time>
      </trkpt>
      <trkpt lat="44.08258" lon="2.93442">
        <ele>351.9</ele>
        <time>2020-06-19T16:36:22.130Z</time>
      </trkpt>
      <trkpt lat="44.08454" lon="2.93491">
        <ele>356.9</ele>
        <time>2020-06-19T16:37:00.139Z</time>
      </trkpt>
      <trkpt lat="44.08545" lon="2.93528">
        <ele>346.8</ele>
        <time>2020-06-19T16:37:07.693Z</time>
      </trkpt>
      <trkpt lat="44.08749" lon="2.93656">
        <ele>347.3</ele>
        <time>2020-06-19T16:37:41.268Z</time>
      </trkpt>
      <trkpt lat="44.08812" lon="2.93721">
        <ele>349.4</ele>
        <time>2020-06-19T16:37:56.538Z</time>
      </trkpt>
      <trkpt lat="44.08846" lon="2.93769">
        <ele>351.4</ele>
        <time>2020-06-19T16:38:07.986Z</time>
      </trkpt>
      <trkpt lat="44.08903" lon="2.93911">
        <ele>347.8</ele>
        <time>2020-06-19T16:38:19.698Z</time>
      </trkpt>
      <trkpt lat="44.08915" lon="2.93957">
        <ele>343.9</ele>
        <time>2020-06-19T16:38:22.499Z</time>
      </trkpt>
      <trkpt lat="44.08923" lon="2.9416">
        <ele>351</ele>
        <time>2020-06-19T16:38:59.690Z</time>
      </trkpt>
      <trkpt lat="44.08841" lon="2.94436">
        <ele>343.3</ele>
        <time>2020-06-19T16:39:20.114Z</time>
      </trkpt>
      <trkpt lat="44.08834" lon="2.94498">
        <ele>340.6</ele>
        <time>2020-06-19T16:39:23.583Z</time>
      </trkpt>
      <trkpt lat="44.08644" lon="2.94953">
        <ele>347.9</ele>
        <time>2020-06-19T16:40:31.083Z</time>
      </trkpt>
      <trkpt lat="44.08499" lon="2.95243">
        <ele>345.1</ele>
        <time>2020-06-19T16:41:03.119Z</time>
      </trkpt>
      <trkpt lat="44.08438" lon="2.95312">
        <ele>343.8</ele>
        <time>2020-06-19T16:41:12.371Z</time>
      </trkpt>
      <trkpt lat="44.08399" lon="2.95384">
        <ele>343.3</ele>
        <time>2020-06-19T16:41:20.918Z</time>
      </trkpt>
      <trkpt lat="44.08387" lon="2.9543">
        <ele>346.6</ele>
        <time>2020-06-19T16:41:33.597Z</time>
      </trkpt>
      <trkpt lat="44.08417" lon="2.95546">
        <ele>357.5</ele>
        <time>2020-06-19T16:42:17.267Z</time>
      </trkpt>
      <trkpt lat="44.08407" lon="2.95639">
        <ele>351.4</ele>
        <time>2020-06-19T16:42:22.649Z</time>
      </trkpt>
      <trkpt lat="44.08416" lon="2.95715">
        <ele>353.9</ele>
        <time>2020-06-19T16:42:36.433Z</time>
      </trkpt>
      <trkpt lat="44.08373" lon="2.95908">
        <ele>357</ele>
        <time>2020-06-19T16:43:02.955Z</time>
      </trkpt>
      <trkpt lat="44.08374" lon="2.9601">
        <ele>354.6</ele>
        <time>2020-06-19T16:43:10.155Z</time>
      </trkpt>
      <trkpt lat="44.08504" lon="2.96256">
        <ele>351.5</ele>
        <time>2020-06-19T16:43:36.763Z</time>
      </trkpt>
      <trkpt lat="44.08561" lon="2.96333">
        <ele>351.9</ele>
        <time>2020-06-19T16:43:49.001Z</time>
      </trkpt>
      <trkpt lat="44.09059" lon="2.96627">
        <ele>354.6</ele>
        <time>2020-06-19T16:45:12.312Z</time>
      </trkpt>
      <trkpt lat="44.09197" lon="2.9676">
        <ele>349.7</ele>
        <time>2020-06-19T16:45:29.423Z</time>
      </trkpt>
      <trkpt lat="44.09296" lon="2.96915">
        <ele>353.4</ele>
        <time>2020-06-19T16:45:57.767Z</time>
      </trkpt>
      <trkpt lat="44.0936" lon="2.97123">
        <ele>351.9</ele>
        <time>2020-06-19T16:46:18.776Z</time>
      </trkpt>
      <trkpt lat="44.09372" lon="2.97218">
        <ele>347.3</ele>
        <time>2020-06-19T16:46:23.843Z</time>
      </trkpt>
      <trkpt lat="44.0935" lon="2.97757">
        <ele>347.6</ele>
        <time>2020-06-19T16:47:21.238Z</time>
      </trkpt>
      <trkpt lat="44.09358" lon="2.98064">
        <ele>362.7</ele>
        <time>2020-06-19T16:48:25.731Z</time>
      </trkpt>
      <trkpt lat="44.09313" lon="2.9822">
        <ele>355.5</ele>
        <time>2020-06-19T16:48:35.040Z</time>
      </trkpt>
      <trkpt lat="44.09255" lon="2.98349">
        <ele>371.7</ele>
        <time>2020-06-19T16:49:37.006Z</time>
      </trkpt>
      <trkpt lat="44.09112" lon="2.98556">
        <ele>354.9</ele>
        <time>2020-06-19T16:49:53.443Z</time>
      </trkpt>
      <trkpt lat="44.08961" lon="2.98613">
        <ele>358.1</ele>
        <time>2020-06-19T16:50:21.739Z</time>
      </trkpt>
      <trkpt lat="44.08826" lon="2.98644">
        <ele>362.3</ele>
        <time>2020-06-19T16:50:49.714Z</time>
      </trkpt>
      <trkpt lat="44.08647" lon="2.98611">
        <ele>366.9</ele>
        <time>2020-06-19T16:51:24.330Z</time>
      </trkpt>
      <trkpt lat="44.08458" lon="2.9853">
        <ele>361.8</ele>
        <time>2020-06-19T16:51:45.245Z</time>
      </trkpt>
      <trkpt lat="44.08412" lon="2.9854">
        <ele>354.5</ele>
        <time>2020-06-19T16:51:48.955Z</time>
      </trkpt>
      <trkpt lat="44.08395" lon="2.98571">
        <ele>356.1</ele>
        <time>2020-06-19T16:51:56.506Z</time>
      </trkpt>
      <trkpt lat="44.08394" lon="2.98647">
        <ele>359.1</ele>
        <time>2020-06-19T16:52:11.008Z</time>
      </trkpt>
      <trkpt lat="44.08423" lon="2.9875">
        <ele>363.5</ele>
        <time>2020-06-19T16:52:32.175Z</time>
      </trkpt>
      <trkpt lat="44.08545" lon="2.98963">
        <ele>362.3</ele>
        <time>2020-06-19T16:52:58.466Z</time>
      </trkpt>
      <trkpt lat="44.08649" lon="2.99098">
        <ele>357</ele>
        <time>2020-06-19T16:53:11.821Z</time>
      </trkpt>
      <trkpt lat="44.08733" lon="2.99238">
        <ele>359</ele>
        <time>2020-06-19T16:53:34.209Z</time>
      </trkpt>
      <trkpt lat="44.08863" lon="2.9963">
        <ele>354.1</ele>
        <time>2020-06-19T16:54:11.050Z</time>
      </trkpt>
      <trkpt lat="44.09063" lon="2.99834">
        <ele>357.5</ele>
        <time>2020-06-19T16:54:52.725Z</time>
      </trkpt>
      <trkpt lat="44.0915" lon="3.00004">
        <ele>356.7</ele>
        <time>2020-06-19T16:55:13.094Z</time>
      </trkpt>
      <trkpt lat="44.09131" lon="3.00134">
        <ele>353.7</ele>
        <time>2020-06-19T16:55:22.579Z</time>
      </trkpt>
      <trkpt lat="44.09" lon="3.00441">
        <ele>358</ele>
        <time>2020-06-19T16:56:07.113Z</time>
      </trkpt>
      <trkpt lat="44.08889" lon="3.00564">
        <ele>353</ele>
        <time>2020-06-19T16:56:20.706Z</time>
      </trkpt>
      <trkpt lat="44.0871" lon="3.00722">
        <ele>353.3</ele>
        <time>2020-06-19T16:56:52.266Z</time>
      </trkpt>
      <trkpt lat="44.08584" lon="3.00942">
        <ele>359.3</ele>
        <time>2020-06-19T16:57:33.065Z</time>
      </trkpt>
      <trkpt lat="44.08526" lon="3.01102">
        <ele>354.8</ele>
        <time>2020-06-19T16:57:45.435Z</time>
      </trkpt>
      <trkpt lat="44.08456" lon="3.01415">
        <ele>353.3</ele>
        <time>2020-06-19T16:58:16.966Z</time>
      </trkpt>
      <trkpt lat="44.08446" lon="3.01541">
        <ele>352.1</ele>
        <time>2020-06-19T16:58:28.145Z</time>
      </trkpt>
      <trkpt lat="44.08569" lon="3.02137">
        <ele>354.6</ele>
        <time>2020-06-19T16:59:37.160Z</time>
      </trkpt>
      <trkpt lat="44.08729" lon="3.02575">
        <ele>358.4</ele>
        <time>2020-06-19T17:00:34.712Z</time>
      </trkpt>
      <trkpt lat="44.08806" lon="3.02689">
        <ele>355.4</ele>
        <time>2020-06-19T17:00:46.483Z</time>
      </trkpt>
      <trkpt lat="44.08894" lon="3.02772">
        <ele>359.1</ele>
        <time>2020-06-19T17:01:09.418Z</time>
      </trkpt>
      <trkpt lat="44.09082" lon="3.02875">
        <ele>361.8</ele>
        <time>2020-06-19T17:01:43.254Z</time>
      </trkpt>
      <trkpt lat="44.0927" lon="3.03041">
        <ele>372.9</ele>
        <time>2020-06-19T17:02:40.413Z</time>
      </trkpt>
      <trkpt lat="44.09379" lon="3.03197">
        <ele>370.6</ele>
        <time>2020-06-19T17:02:59.235Z</time>
      </trkpt>
      <trkpt lat="44.09428" lon="3.03363">
        <ele>368</ele>
        <time>2020-06-19T17:03:13.764Z</time>
      </trkpt>
      <trkpt lat="44.09411" lon="3.0364">
        <ele>361.1</ele>
        <time>2020-06-19T17:03:33.026Z</time>
      </trkpt>
      <trkpt lat="44.0937" lon="3.03804">
        <ele>369.6</ele>
        <time>2020-06-19T17:04:09.405Z</time>
      </trkpt>
      <trkpt lat="44.09327" lon="3.03892">
        <ele>362.5</ele>
        <time>2020-06-19T17:04:15.496Z</time>
      </trkpt>
      <trkpt lat="44.09178" lon="3.04121">
        <ele>363.1</ele>
        <time>2020-06-19T17:04:48.942Z</time>
      </trkpt>
      <trkpt lat="44.09146" lon="3.04209">
        <ele>362.5</ele>
        <time>2020-06-19T17:04:58.195Z</time>
      </trkpt>
      <trkpt lat="44.09141" lon="3.0433">
        <ele>365.6</ele>
        <time>2020-06-19T17:05:17.182Z</time>
      </trkpt>
      <trkpt lat="44.09216" lon="3.04731">
        <ele>374.7</ele>
        <time>2020-06-19T17:06:17.941Z</time>
      </trkpt>
      <trkpt lat="44.09215" lon="3.04833">
        <ele>373.9</ele>
        <time>2020-06-19T17:06:27.202Z</time>
      </trkpt>
      <trkpt lat="44.09192" lon="3.04969">
        <ele>373.4</ele>
        <time>2020-06-19T17:06:40.905Z</time>
      </trkpt>
      <trkpt lat="44.09163" lon="3.05056">
        <ele>362.2</ele>
        <time>2020-06-19T17:06:46.394Z</time>
      </trkpt>
      <trkpt lat="44.09067" lon="3.05225">
        <ele>363.2</ele>
        <time>2020-06-19T17:07:10.570Z</time>
      </trkpt>
      <trkpt lat="44.08966" lon="3.05445">
        <ele>371.8</ele>
        <time>2020-06-19T17:07:57.492Z</time>
      </trkpt>
      <trkpt lat="44.08877" lon="3.05973">
        <ele>376.6</ele>
        <time>2020-06-19T17:09:02.029Z</time>
      </trkpt>
      <trkpt lat="44.08883" lon="3.06049">
        <ele>371.6</ele>
        <time>2020-06-19T17:09:06.405Z</time>
      </trkpt>
      <trkpt lat="44.08921" lon="3.06127">
        <ele>369.7</ele>
        <time>2020-06-19T17:09:13.390Z</time>
      </trkpt>
      <trkpt lat="44.08959" lon="3.0615">
        <ele>369.6</ele>
        <time>2020-06-19T17:09:19.262Z</time>
      </trkpt>
      <trkpt lat="44.09058" lon="3.06167">
        <ele>368.5</ele>
        <time>2020-06-19T17:09:31.854Z</time>
      </trkpt>
      <trkpt lat="44.09102" lon="3.06193">
        <ele>371.9</ele>
        <time>2020-06-19T17:09:46.112Z</time>
      </trkpt>
      <trkpt lat="44.09182" lon="3.06275">
        <ele>367.3</ele>
        <time>2020-06-19T17:09:54.686Z</time>
      </trkpt>
      <trkpt lat="44.09242" lon="3.06378">
        <ele>365.1</ele>
        <time>2020-06-19T17:10:05.067Z</time>
      </trkpt>
      <trkpt lat="44.09324" lon="3.06675">
        <ele>363.6</ele>
        <time>2020-06-19T17:10:35.586Z</time>
      </trkpt>
      <trkpt lat="44.09362" lon="3.07094">
        <ele>365.5</ele>
        <time>2020-06-19T17:11:22.879Z</time>
      </trkpt>
      <trkpt lat="44.09431" lon="3.07379">
        <ele>365.3</ele>
        <time>2020-06-19T17:11:54.182Z</time>
      </trkpt>
      <trkpt lat="44.09443" lon="3.07389">
        <ele>365.4</ele>
        <time>2020-06-19T17:11:56.382Z</time>
      </trkpt>
      <trkpt lat="44.09433" lon="3.07413">
        <ele>364.8</ele>
        <time>2020-06-19T17:11:58.394Z</time>
      </trkpt>
    </trkseg>
  </trk>
</gpx>